<?xml version="1.0" encoding="UTF-8" standalone="no" ?>
<gpx xmlns="http://www.topografix.com/GPX/1/1" xmlns:xsi="http://www.w3.org/2001/XMLSchema-instance" xsi:schemaLocation="http://www.topografix.com/GPX/1/1 http://www.topografix.com/GPX/1/1/gpx.xsd" version="1.1" creator="VisuGPX - https://www.visugpx.com">
  <metadata>
    <name>Les crêtes</name>
    <desc><![CDATA[Cyclemeter Vélo (Route) 14 févr. 2016 09:29:41]]></desc>
  </metadata>
  <trk>
    <name><![CDATA[Nouveau parcours]]></name>
    <trkseg>
      <trkpt lat="43.46762" lon="6.69667">
        <ele>29.6</ele>
        <time>2016-02-14T08:29:42Z</time>
      </trkpt>
      <trkpt lat="43.46762" lon="6.69667">
        <ele>29.6</ele>
        <time>2016-02-14T08:34:13Z</time>
      </trkpt>
      <trkpt lat="43.46745" lon="6.69657">
        <ele>28.7</ele>
        <time>2016-02-14T08:34:26Z</time>
      </trkpt>
      <trkpt lat="43.46717" lon="6.69625">
        <ele>28.6</ele>
        <time>2016-02-14T08:34:41Z</time>
      </trkpt>
      <trkpt lat="43.46711" lon="6.69608">
        <ele>28.4</ele>
        <time>2016-02-14T08:34:44Z</time>
      </trkpt>
      <trkpt lat="43.46707" lon="6.6958">
        <ele>28.1</ele>
        <time>2016-02-14T08:34:48Z</time>
      </trkpt>
      <trkpt lat="43.46697" lon="6.69559">
        <ele>27.9</ele>
        <time>2016-02-14T08:34:52Z</time>
      </trkpt>
      <trkpt lat="43.46697" lon="6.69549">
        <ele>28</ele>
        <time>2016-02-14T08:34:54Z</time>
      </trkpt>
      <trkpt lat="43.46683" lon="6.69528">
        <ele>28.4</ele>
        <time>2016-02-14T08:34:59Z</time>
      </trkpt>
      <trkpt lat="43.46678" lon="6.69525">
        <ele>28.5</ele>
        <time>2016-02-14T08:35:00Z</time>
      </trkpt>
      <trkpt lat="43.46673" lon="6.69495">
        <ele>28.5</ele>
        <time>2016-02-14T08:35:16Z</time>
      </trkpt>
      <trkpt lat="43.46673" lon="6.69495">
        <ele>28.5</ele>
        <time>2016-02-14T08:35:39Z</time>
      </trkpt>
      <trkpt lat="43.46675" lon="6.69485">
        <ele>28.1</ele>
        <time>2016-02-14T08:35:40Z</time>
      </trkpt>
      <trkpt lat="43.46667" lon="6.69499">
        <ele>28</ele>
        <time>2016-02-14T08:35:42Z</time>
      </trkpt>
      <trkpt lat="43.46667" lon="6.69515">
        <ele>27.9</ele>
        <time>2016-02-14T08:35:44Z</time>
      </trkpt>
      <trkpt lat="43.46699" lon="6.69564">
        <ele>27.8</ele>
        <time>2016-02-14T08:35:52Z</time>
      </trkpt>
      <trkpt lat="43.46708" lon="6.69595">
        <ele>28.3</ele>
        <time>2016-02-14T08:35:57Z</time>
      </trkpt>
      <trkpt lat="43.46725" lon="6.69618">
        <ele>29</ele>
        <time>2016-02-14T08:36:02Z</time>
      </trkpt>
      <trkpt lat="43.4673" lon="6.69621">
        <ele>29.2</ele>
        <time>2016-02-14T08:36:03Z</time>
      </trkpt>
      <trkpt lat="43.46734" lon="6.69644">
        <ele>29.8</ele>
        <time>2016-02-14T08:36:07Z</time>
      </trkpt>
      <trkpt lat="43.46748" lon="6.69654">
        <ele>29.3</ele>
        <time>2016-02-14T08:36:16Z</time>
      </trkpt>
      <trkpt lat="43.46748" lon="6.69654">
        <ele>29.3</ele>
        <time>2016-02-14T08:39:23Z</time>
      </trkpt>
      <trkpt lat="43.46739" lon="6.69652">
        <ele>28.8</ele>
        <time>2016-02-14T08:39:36Z</time>
      </trkpt>
      <trkpt lat="43.46705" lon="6.69607">
        <ele>27.5</ele>
        <time>2016-02-14T08:39:52Z</time>
      </trkpt>
      <trkpt lat="43.46698" lon="6.69586">
        <ele>27.6</ele>
        <time>2016-02-14T08:40:01Z</time>
      </trkpt>
      <trkpt lat="43.46699" lon="6.69595">
        <ele>27.9</ele>
        <time>2016-02-14T08:40:03Z</time>
      </trkpt>
      <trkpt lat="43.46729" lon="6.69641">
        <ele>28.5</ele>
        <time>2016-02-14T08:40:10Z</time>
      </trkpt>
      <trkpt lat="43.46747" lon="6.69657">
        <ele>27.8</ele>
        <time>2016-02-14T08:40:17Z</time>
      </trkpt>
      <trkpt lat="43.46747" lon="6.69657">
        <ele>27.8</ele>
        <time>2016-02-14T08:44:27Z</time>
      </trkpt>
      <trkpt lat="43.46749" lon="6.69659">
        <ele>27.1</ele>
        <time>2016-02-14T08:44:33Z</time>
      </trkpt>
      <trkpt lat="43.46718" lon="6.69636">
        <ele>27</ele>
        <time>2016-02-14T08:44:45Z</time>
      </trkpt>
      <trkpt lat="43.46697" lon="6.69594">
        <ele>26.8</ele>
        <time>2016-02-14T08:44:52Z</time>
      </trkpt>
      <trkpt lat="43.46697" lon="6.69576">
        <ele>26.7</ele>
        <time>2016-02-14T08:44:54Z</time>
      </trkpt>
      <trkpt lat="43.46688" lon="6.69559">
        <ele>26.6</ele>
        <time>2016-02-14T08:44:57Z</time>
      </trkpt>
      <trkpt lat="43.46687" lon="6.69553">
        <ele>26.7</ele>
        <time>2016-02-14T08:44:58Z</time>
      </trkpt>
      <trkpt lat="43.46669" lon="6.69519">
        <ele>27.4</ele>
        <time>2016-02-14T08:45:06Z</time>
      </trkpt>
      <trkpt lat="43.46667" lon="6.69503">
        <ele>27.6</ele>
        <time>2016-02-14T08:45:09Z</time>
      </trkpt>
      <trkpt lat="43.46682" lon="6.69447">
        <ele>28.2</ele>
        <time>2016-02-14T08:45:22Z</time>
      </trkpt>
      <trkpt lat="43.46677" lon="6.69434">
        <ele>28.3</ele>
        <time>2016-02-14T08:45:25Z</time>
      </trkpt>
      <trkpt lat="43.46657" lon="6.69426">
        <ele>28.4</ele>
        <time>2016-02-14T08:45:30Z</time>
      </trkpt>
      <trkpt lat="43.46639" lon="6.69427">
        <ele>28.5</ele>
        <time>2016-02-14T08:45:34Z</time>
      </trkpt>
      <trkpt lat="43.466" lon="6.69406">
        <ele>28.7</ele>
        <time>2016-02-14T08:45:41Z</time>
      </trkpt>
      <trkpt lat="43.46564" lon="6.69366">
        <ele>29.3</ele>
        <time>2016-02-14T08:45:53Z</time>
      </trkpt>
      <trkpt lat="43.46523" lon="6.69333">
        <ele>30.6</ele>
        <time>2016-02-14T08:46:06Z</time>
      </trkpt>
      <trkpt lat="43.46488" lon="6.69295">
        <ele>33.5</ele>
        <time>2016-02-14T08:46:20Z</time>
      </trkpt>
      <trkpt lat="43.46484" lon="6.69286">
        <ele>33.3</ele>
        <time>2016-02-14T08:46:23Z</time>
      </trkpt>
      <trkpt lat="43.46526" lon="6.69261">
        <ele>32.8</ele>
        <time>2016-02-14T08:46:36Z</time>
      </trkpt>
      <trkpt lat="43.46572" lon="6.69237">
        <ele>32.7</ele>
        <time>2016-02-14T08:46:48Z</time>
      </trkpt>
      <trkpt lat="43.46614" lon="6.69204">
        <ele>32.6</ele>
        <time>2016-02-14T08:47:00Z</time>
      </trkpt>
      <trkpt lat="43.46652" lon="6.6917">
        <ele>32.4</ele>
        <time>2016-02-14T08:47:11Z</time>
      </trkpt>
      <trkpt lat="43.4666" lon="6.69165">
        <ele>32.4</ele>
        <time>2016-02-14T08:47:13Z</time>
      </trkpt>
      <trkpt lat="43.46708" lon="6.69155">
        <ele>32.3</ele>
        <time>2016-02-14T08:47:23Z</time>
      </trkpt>
      <trkpt lat="43.46756" lon="6.69173">
        <ele>32.5</ele>
        <time>2016-02-14T08:47:34Z</time>
      </trkpt>
      <trkpt lat="43.46798" lon="6.69205">
        <ele>32.9</ele>
        <time>2016-02-14T08:47:44Z</time>
      </trkpt>
      <trkpt lat="43.46842" lon="6.69235">
        <ele>33.3</ele>
        <time>2016-02-14T08:47:55Z</time>
      </trkpt>
      <trkpt lat="43.46888" lon="6.69248">
        <ele>33.8</ele>
        <time>2016-02-14T08:48:07Z</time>
      </trkpt>
      <trkpt lat="43.46933" lon="6.69235">
        <ele>34.2</ele>
        <time>2016-02-14T08:48:18Z</time>
      </trkpt>
      <trkpt lat="43.46959" lon="6.69232">
        <ele>34.4</ele>
        <time>2016-02-14T08:48:24Z</time>
      </trkpt>
      <trkpt lat="43.46996" lon="6.69221">
        <ele>34.8</ele>
        <time>2016-02-14T08:48:32Z</time>
      </trkpt>
      <trkpt lat="43.4704" lon="6.69207">
        <ele>35.2</ele>
        <time>2016-02-14T08:48:43Z</time>
      </trkpt>
      <trkpt lat="43.47087" lon="6.69198">
        <ele>36.5</ele>
        <time>2016-02-14T08:48:55Z</time>
      </trkpt>
      <trkpt lat="43.4713" lon="6.69174">
        <ele>37.9</ele>
        <time>2016-02-14T08:49:06Z</time>
      </trkpt>
      <trkpt lat="43.47166" lon="6.69131">
        <ele>39.1</ele>
        <time>2016-02-14T08:49:17Z</time>
      </trkpt>
      <trkpt lat="43.47185" lon="6.69103">
        <ele>39.4</ele>
        <time>2016-02-14T08:49:23Z</time>
      </trkpt>
      <trkpt lat="43.4722" lon="6.69066">
        <ele>39.9</ele>
        <time>2016-02-14T08:49:34Z</time>
      </trkpt>
      <trkpt lat="43.47263" lon="6.69039">
        <ele>40.3</ele>
        <time>2016-02-14T08:49:43Z</time>
      </trkpt>
      <trkpt lat="43.47307" lon="6.69022">
        <ele>40.8</ele>
        <time>2016-02-14T08:49:53Z</time>
      </trkpt>
      <trkpt lat="43.47356" lon="6.69021">
        <ele>41.4</ele>
        <time>2016-02-14T08:50:04Z</time>
      </trkpt>
      <trkpt lat="43.47401" lon="6.6901">
        <ele>42</ele>
        <time>2016-02-14T08:50:16Z</time>
      </trkpt>
      <trkpt lat="43.47445" lon="6.68983">
        <ele>42.4</ele>
        <time>2016-02-14T08:50:28Z</time>
      </trkpt>
      <trkpt lat="43.47488" lon="6.68966">
        <ele>43.5</ele>
        <time>2016-02-14T08:50:39Z</time>
      </trkpt>
      <trkpt lat="43.47534" lon="6.68976">
        <ele>46.5</ele>
        <time>2016-02-14T08:50:55Z</time>
      </trkpt>
      <trkpt lat="43.47582" lon="6.68987">
        <ele>48</ele>
        <time>2016-02-14T08:51:09Z</time>
      </trkpt>
      <trkpt lat="43.47628" lon="6.69003">
        <ele>50.4</ele>
        <time>2016-02-14T08:51:24Z</time>
      </trkpt>
      <trkpt lat="43.47673" lon="6.69015">
        <ele>52.5</ele>
        <time>2016-02-14T08:51:38Z</time>
      </trkpt>
      <trkpt lat="43.4772" lon="6.69008">
        <ele>53.3</ele>
        <time>2016-02-14T08:51:50Z</time>
      </trkpt>
      <trkpt lat="43.47767" lon="6.68997">
        <ele>53.8</ele>
        <time>2016-02-14T08:52:01Z</time>
      </trkpt>
      <trkpt lat="43.47813" lon="6.68979">
        <ele>54.2</ele>
        <time>2016-02-14T08:52:11Z</time>
      </trkpt>
      <trkpt lat="43.47856" lon="6.68955">
        <ele>54.7</ele>
        <time>2016-02-14T08:52:23Z</time>
      </trkpt>
      <trkpt lat="43.47899" lon="6.68928">
        <ele>55.1</ele>
        <time>2016-02-14T08:52:37Z</time>
      </trkpt>
      <trkpt lat="43.47942" lon="6.68903">
        <ele>55.3</ele>
        <time>2016-02-14T08:52:51Z</time>
      </trkpt>
      <trkpt lat="43.47985" lon="6.68877">
        <ele>55.6</ele>
        <time>2016-02-14T08:53:04Z</time>
      </trkpt>
      <trkpt lat="43.48029" lon="6.68861">
        <ele>55.8</ele>
        <time>2016-02-14T08:53:16Z</time>
      </trkpt>
      <trkpt lat="43.48079" lon="6.68859">
        <ele>56</ele>
        <time>2016-02-14T08:53:26Z</time>
      </trkpt>
      <trkpt lat="43.48121" lon="6.68857">
        <ele>56.1</ele>
        <time>2016-02-14T08:53:34Z</time>
      </trkpt>
      <trkpt lat="43.48156" lon="6.68839">
        <ele>55.2</ele>
        <time>2016-02-14T08:53:40Z</time>
      </trkpt>
      <trkpt lat="43.4817" lon="6.68839">
        <ele>54.7</ele>
        <time>2016-02-14T08:53:42Z</time>
      </trkpt>
      <trkpt lat="43.48215" lon="6.68869">
        <ele>53.9</ele>
        <time>2016-02-14T08:53:48Z</time>
      </trkpt>
      <trkpt lat="43.4826" lon="6.689">
        <ele>52.8</ele>
        <time>2016-02-14T08:53:55Z</time>
      </trkpt>
      <trkpt lat="43.48301" lon="6.68936">
        <ele>51.6</ele>
        <time>2016-02-14T08:54:01Z</time>
      </trkpt>
      <trkpt lat="43.48342" lon="6.68967">
        <ele>49.6</ele>
        <time>2016-02-14T08:54:07Z</time>
      </trkpt>
      <trkpt lat="43.48388" lon="6.69005">
        <ele>47</ele>
        <time>2016-02-14T08:54:13Z</time>
      </trkpt>
      <trkpt lat="43.48421" lon="6.69054">
        <ele>46.1</ele>
        <time>2016-02-14T08:54:18Z</time>
      </trkpt>
      <trkpt lat="43.48432" lon="6.691">
        <ele>46.1</ele>
        <time>2016-02-14T08:54:22Z</time>
      </trkpt>
      <trkpt lat="43.48436" lon="6.69131">
        <ele>46.1</ele>
        <time>2016-02-14T08:54:25Z</time>
      </trkpt>
      <trkpt lat="43.48452" lon="6.69159">
        <ele>46.5</ele>
        <time>2016-02-14T08:54:29Z</time>
      </trkpt>
      <trkpt lat="43.48489" lon="6.69175">
        <ele>47.1</ele>
        <time>2016-02-14T08:54:35Z</time>
      </trkpt>
      <trkpt lat="43.48506" lon="6.69172">
        <ele>47.2</ele>
        <time>2016-02-14T08:54:37Z</time>
      </trkpt>
      <trkpt lat="43.48536" lon="6.69191">
        <ele>46.3</ele>
        <time>2016-02-14T08:54:42Z</time>
      </trkpt>
      <trkpt lat="43.4856" lon="6.69222">
        <ele>46.2</ele>
        <time>2016-02-14T08:54:47Z</time>
      </trkpt>
      <trkpt lat="43.48582" lon="6.69234">
        <ele>46.7</ele>
        <time>2016-02-14T08:54:51Z</time>
      </trkpt>
      <trkpt lat="43.48619" lon="6.69228">
        <ele>47.3</ele>
        <time>2016-02-14T08:54:58Z</time>
      </trkpt>
      <trkpt lat="43.48666" lon="6.6923">
        <ele>48.2</ele>
        <time>2016-02-14T08:55:08Z</time>
      </trkpt>
      <trkpt lat="43.48686" lon="6.6924">
        <ele>48.6</ele>
        <time>2016-02-14T08:55:13Z</time>
      </trkpt>
      <trkpt lat="43.48732" lon="6.69234">
        <ele>49.6</ele>
        <time>2016-02-14T08:55:22Z</time>
      </trkpt>
      <trkpt lat="43.48779" lon="6.69224">
        <ele>51.2</ele>
        <time>2016-02-14T08:55:32Z</time>
      </trkpt>
      <trkpt lat="43.48827" lon="6.6922">
        <ele>52.2</ele>
        <time>2016-02-14T08:55:46Z</time>
      </trkpt>
      <trkpt lat="43.48847" lon="6.69221">
        <ele>52.6</ele>
        <time>2016-02-14T08:55:51Z</time>
      </trkpt>
      <trkpt lat="43.4885" lon="6.69227">
        <ele>52.7</ele>
        <time>2016-02-14T08:55:52Z</time>
      </trkpt>
      <trkpt lat="43.48897" lon="6.69242">
        <ele>53.5</ele>
        <time>2016-02-14T08:56:03Z</time>
      </trkpt>
      <trkpt lat="43.48909" lon="6.69249">
        <ele>53.8</ele>
        <time>2016-02-14T08:56:06Z</time>
      </trkpt>
      <trkpt lat="43.48916" lon="6.69247">
        <ele>53.8</ele>
        <time>2016-02-14T08:56:07Z</time>
      </trkpt>
      <trkpt lat="43.48927" lon="6.69253">
        <ele>54.1</ele>
        <time>2016-02-14T08:56:10Z</time>
      </trkpt>
      <trkpt lat="43.48937" lon="6.69255">
        <ele>54.2</ele>
        <time>2016-02-14T08:56:12Z</time>
      </trkpt>
      <trkpt lat="43.48938" lon="6.69258">
        <ele>54.3</ele>
        <time>2016-02-14T08:56:13Z</time>
      </trkpt>
      <trkpt lat="43.48977" lon="6.69294">
        <ele>55.9</ele>
        <time>2016-02-14T08:56:25Z</time>
      </trkpt>
      <trkpt lat="43.49001" lon="6.693">
        <ele>56.6</ele>
        <time>2016-02-14T08:56:31Z</time>
      </trkpt>
      <trkpt lat="43.49025" lon="6.69291">
        <ele>57.3</ele>
        <time>2016-02-14T08:56:36Z</time>
      </trkpt>
      <trkpt lat="43.4906" lon="6.69283">
        <ele>57.8</ele>
        <time>2016-02-14T08:56:42Z</time>
      </trkpt>
      <trkpt lat="43.49103" lon="6.69286">
        <ele>58.4</ele>
        <time>2016-02-14T08:56:50Z</time>
      </trkpt>
      <trkpt lat="43.4915" lon="6.69277">
        <ele>59.4</ele>
        <time>2016-02-14T08:57:02Z</time>
      </trkpt>
      <trkpt lat="43.49194" lon="6.69292">
        <ele>60.3</ele>
        <time>2016-02-14T08:57:11Z</time>
      </trkpt>
      <trkpt lat="43.49222" lon="6.69313">
        <ele>60.9</ele>
        <time>2016-02-14T08:57:18Z</time>
      </trkpt>
      <trkpt lat="43.49238" lon="6.69328">
        <ele>61.4</ele>
        <time>2016-02-14T08:57:23Z</time>
      </trkpt>
      <trkpt lat="43.4924" lon="6.69335">
        <ele>61.6</ele>
        <time>2016-02-14T08:57:25Z</time>
      </trkpt>
      <trkpt lat="43.49279" lon="6.69372">
        <ele>64</ele>
        <time>2016-02-14T08:57:38Z</time>
      </trkpt>
      <trkpt lat="43.49306" lon="6.69425">
        <ele>66.4</ele>
        <time>2016-02-14T08:57:53Z</time>
      </trkpt>
      <trkpt lat="43.49335" lon="6.69459">
        <ele>68.1</ele>
        <time>2016-02-14T08:58:07Z</time>
      </trkpt>
      <trkpt lat="43.49376" lon="6.69433">
        <ele>68.6</ele>
        <time>2016-02-14T08:58:20Z</time>
      </trkpt>
      <trkpt lat="43.49395" lon="6.69407">
        <ele>68.2</ele>
        <time>2016-02-14T08:58:28Z</time>
      </trkpt>
      <trkpt lat="43.49404" lon="6.69399">
        <ele>68.3</ele>
        <time>2016-02-14T08:58:32Z</time>
      </trkpt>
      <trkpt lat="43.49425" lon="6.69343">
        <ele>69.2</ele>
        <time>2016-02-14T08:58:48Z</time>
      </trkpt>
      <trkpt lat="43.49447" lon="6.69291">
        <ele>69.7</ele>
        <time>2016-02-14T08:59:03Z</time>
      </trkpt>
      <trkpt lat="43.49457" lon="6.6923">
        <ele>70.3</ele>
        <time>2016-02-14T08:59:17Z</time>
      </trkpt>
      <trkpt lat="43.49474" lon="6.6917">
        <ele>70.9</ele>
        <time>2016-02-14T08:59:31Z</time>
      </trkpt>
      <trkpt lat="43.495" lon="6.69119">
        <ele>70.2</ele>
        <time>2016-02-14T08:59:43Z</time>
      </trkpt>
      <trkpt lat="43.49519" lon="6.69072">
        <ele>69.6</ele>
        <time>2016-02-14T08:59:53Z</time>
      </trkpt>
      <trkpt lat="43.49545" lon="6.69021">
        <ele>68.9</ele>
        <time>2016-02-14T09:00:05Z</time>
      </trkpt>
      <trkpt lat="43.49565" lon="6.68963">
        <ele>68.2</ele>
        <time>2016-02-14T09:00:16Z</time>
      </trkpt>
      <trkpt lat="43.49566" lon="6.68924">
        <ele>67.9</ele>
        <time>2016-02-14T09:00:22Z</time>
      </trkpt>
      <trkpt lat="43.49544" lon="6.68868">
        <ele>66.9</ele>
        <time>2016-02-14T09:00:30Z</time>
      </trkpt>
      <trkpt lat="43.49538" lon="6.68842">
        <ele>64.9</ele>
        <time>2016-02-14T09:00:34Z</time>
      </trkpt>
      <trkpt lat="43.4954" lon="6.68814">
        <ele>64.4</ele>
        <time>2016-02-14T09:00:39Z</time>
      </trkpt>
      <trkpt lat="43.49544" lon="6.68809">
        <ele>64.4</ele>
        <time>2016-02-14T09:00:40Z</time>
      </trkpt>
      <trkpt lat="43.49544" lon="6.68794">
        <ele>64.3</ele>
        <time>2016-02-14T09:00:43Z</time>
      </trkpt>
      <trkpt lat="43.49562" lon="6.68735">
        <ele>68</ele>
        <time>2016-02-14T09:00:59Z</time>
      </trkpt>
      <trkpt lat="43.49569" lon="6.68674">
        <ele>71.9</ele>
        <time>2016-02-14T09:01:17Z</time>
      </trkpt>
      <trkpt lat="43.49572" lon="6.68609">
        <ele>71.1</ele>
        <time>2016-02-14T09:01:31Z</time>
      </trkpt>
      <trkpt lat="43.49576" lon="6.68542">
        <ele>69.5</ele>
        <time>2016-02-14T09:01:39Z</time>
      </trkpt>
      <trkpt lat="43.49576" lon="6.68478">
        <ele>70.8</ele>
        <time>2016-02-14T09:01:49Z</time>
      </trkpt>
      <trkpt lat="43.49608" lon="6.6843">
        <ele>72.4</ele>
        <time>2016-02-14T09:02:06Z</time>
      </trkpt>
      <trkpt lat="43.49634" lon="6.68377">
        <ele>74.2</ele>
        <time>2016-02-14T09:02:21Z</time>
      </trkpt>
      <trkpt lat="43.49661" lon="6.68324">
        <ele>76.8</ele>
        <time>2016-02-14T09:02:41Z</time>
      </trkpt>
      <trkpt lat="43.49691" lon="6.68275">
        <ele>79.6</ele>
        <time>2016-02-14T09:03:00Z</time>
      </trkpt>
      <trkpt lat="43.49717" lon="6.68224">
        <ele>79.1</ele>
        <time>2016-02-14T09:03:17Z</time>
      </trkpt>
      <trkpt lat="43.49744" lon="6.68175">
        <ele>78.5</ele>
        <time>2016-02-14T09:03:32Z</time>
      </trkpt>
      <trkpt lat="43.4978" lon="6.68132">
        <ele>78.8</ele>
        <time>2016-02-14T09:03:45Z</time>
      </trkpt>
      <trkpt lat="43.49822" lon="6.68101">
        <ele>81.1</ele>
        <time>2016-02-14T09:04:03Z</time>
      </trkpt>
      <trkpt lat="43.49861" lon="6.68064">
        <ele>83.1</ele>
        <time>2016-02-14T09:04:17Z</time>
      </trkpt>
      <trkpt lat="43.49909" lon="6.68059">
        <ele>84.6</ele>
        <time>2016-02-14T09:04:32Z</time>
      </trkpt>
      <trkpt lat="43.49934" lon="6.68031">
        <ele>84.9</ele>
        <time>2016-02-14T09:04:40Z</time>
      </trkpt>
      <trkpt lat="43.49935" lon="6.68028">
        <ele>85</ele>
        <time>2016-02-14T09:04:41Z</time>
      </trkpt>
      <trkpt lat="43.49979" lon="6.6801">
        <ele>86.2</ele>
        <time>2016-02-14T09:04:55Z</time>
      </trkpt>
      <trkpt lat="43.50016" lon="6.6797">
        <ele>85.5</ele>
        <time>2016-02-14T09:05:10Z</time>
      </trkpt>
      <trkpt lat="43.50039" lon="6.6791">
        <ele>84.6</ele>
        <time>2016-02-14T09:05:23Z</time>
      </trkpt>
      <trkpt lat="43.50054" lon="6.6786">
        <ele>84.4</ele>
        <time>2016-02-14T09:05:32Z</time>
      </trkpt>
      <trkpt lat="43.50064" lon="6.6782">
        <ele>85.6</ele>
        <time>2016-02-14T09:05:41Z</time>
      </trkpt>
      <trkpt lat="43.50076" lon="6.67805">
        <ele>86.5</ele>
        <time>2016-02-14T09:05:46Z</time>
      </trkpt>
      <trkpt lat="43.50086" lon="6.67745">
        <ele>90</ele>
        <time>2016-02-14T09:06:03Z</time>
      </trkpt>
      <trkpt lat="43.50082" lon="6.67682">
        <ele>90.3</ele>
        <time>2016-02-14T09:06:18Z</time>
      </trkpt>
      <trkpt lat="43.50075" lon="6.6765">
        <ele>90.1</ele>
        <time>2016-02-14T09:06:25Z</time>
      </trkpt>
      <trkpt lat="43.50058" lon="6.67634">
        <ele>89.8</ele>
        <time>2016-02-14T09:06:33Z</time>
      </trkpt>
      <trkpt lat="43.50098" lon="6.67599">
        <ele>89.2</ele>
        <time>2016-02-14T09:06:48Z</time>
      </trkpt>
      <trkpt lat="43.50121" lon="6.67553">
        <ele>88.8</ele>
        <time>2016-02-14T09:06:59Z</time>
      </trkpt>
      <trkpt lat="43.50125" lon="6.67532">
        <ele>88.7</ele>
        <time>2016-02-14T09:07:03Z</time>
      </trkpt>
      <trkpt lat="43.50133" lon="6.67514">
        <ele>88.6</ele>
        <time>2016-02-14T09:07:06Z</time>
      </trkpt>
      <trkpt lat="43.50132" lon="6.67509">
        <ele>88.6</ele>
        <time>2016-02-14T09:07:07Z</time>
      </trkpt>
      <trkpt lat="43.50142" lon="6.67461">
        <ele>88.2</ele>
        <time>2016-02-14T09:07:16Z</time>
      </trkpt>
      <trkpt lat="43.5016" lon="6.67454">
        <ele>88</ele>
        <time>2016-02-14T09:07:22Z</time>
      </trkpt>
      <trkpt lat="43.50188" lon="6.67455">
        <ele>87.1</ele>
        <time>2016-02-14T09:07:27Z</time>
      </trkpt>
      <trkpt lat="43.50234" lon="6.67463">
        <ele>83.4</ele>
        <time>2016-02-14T09:07:35Z</time>
      </trkpt>
      <trkpt lat="43.50237" lon="6.67461">
        <ele>82.9</ele>
        <time>2016-02-14T09:07:36Z</time>
      </trkpt>
      <trkpt lat="43.5024" lon="6.67464">
        <ele>82.3</ele>
        <time>2016-02-14T09:07:37Z</time>
      </trkpt>
      <trkpt lat="43.5024" lon="6.67454">
        <ele>81</ele>
        <time>2016-02-14T09:07:39Z</time>
      </trkpt>
      <trkpt lat="43.5025" lon="6.67434">
        <ele>79.1</ele>
        <time>2016-02-14T09:07:42Z</time>
      </trkpt>
      <trkpt lat="43.50267" lon="6.67416">
        <ele>77.5</ele>
        <time>2016-02-14T09:07:45Z</time>
      </trkpt>
      <trkpt lat="43.50277" lon="6.67414">
        <ele>76.9</ele>
        <time>2016-02-14T09:07:46Z</time>
      </trkpt>
      <trkpt lat="43.50315" lon="6.67374">
        <ele>73</ele>
        <time>2016-02-14T09:07:53Z</time>
      </trkpt>
      <trkpt lat="43.50327" lon="6.67352">
        <ele>71.4</ele>
        <time>2016-02-14T09:07:57Z</time>
      </trkpt>
      <trkpt lat="43.50333" lon="6.67331">
        <ele>70.3</ele>
        <time>2016-02-14T09:08:00Z</time>
      </trkpt>
      <trkpt lat="43.50347" lon="6.67309">
        <ele>68.7</ele>
        <time>2016-02-14T09:08:04Z</time>
      </trkpt>
      <trkpt lat="43.5035" lon="6.67294">
        <ele>68.8</ele>
        <time>2016-02-14T09:08:07Z</time>
      </trkpt>
      <trkpt lat="43.50347" lon="6.67287">
        <ele>68.9</ele>
        <time>2016-02-14T09:08:08Z</time>
      </trkpt>
      <trkpt lat="43.50358" lon="6.67247">
        <ele>68.3</ele>
        <time>2016-02-14T09:08:14Z</time>
      </trkpt>
      <trkpt lat="43.50374" lon="6.67186">
        <ele>67.9</ele>
        <time>2016-02-14T09:08:27Z</time>
      </trkpt>
      <trkpt lat="43.50395" lon="6.67128">
        <ele>67.5</ele>
        <time>2016-02-14T09:08:38Z</time>
      </trkpt>
      <trkpt lat="43.50402" lon="6.67107">
        <ele>66.7</ele>
        <time>2016-02-14T09:08:42Z</time>
      </trkpt>
      <trkpt lat="43.50446" lon="6.67089">
        <ele>67</ele>
        <time>2016-02-14T09:09:03Z</time>
      </trkpt>
      <trkpt lat="43.50485" lon="6.67054">
        <ele>67.5</ele>
        <time>2016-02-14T09:09:24Z</time>
      </trkpt>
      <trkpt lat="43.50517" lon="6.67007">
        <ele>67.9</ele>
        <time>2016-02-14T09:09:42Z</time>
      </trkpt>
      <trkpt lat="43.50559" lon="6.66973">
        <ele>68.3</ele>
        <time>2016-02-14T09:09:56Z</time>
      </trkpt>
      <trkpt lat="43.50583" lon="6.66948">
        <ele>68.5</ele>
        <time>2016-02-14T09:10:04Z</time>
      </trkpt>
      <trkpt lat="43.50587" lon="6.66918">
        <ele>68.6</ele>
        <time>2016-02-14T09:10:10Z</time>
      </trkpt>
      <trkpt lat="43.50574" lon="6.66855">
        <ele>69.3</ele>
        <time>2016-02-14T09:10:24Z</time>
      </trkpt>
      <trkpt lat="43.50571" lon="6.66811">
        <ele>69.8</ele>
        <time>2016-02-14T09:10:34Z</time>
      </trkpt>
      <trkpt lat="43.50591" lon="6.66752">
        <ele>70.4</ele>
        <time>2016-02-14T09:10:48Z</time>
      </trkpt>
      <trkpt lat="43.50631" lon="6.66723">
        <ele>71</ele>
        <time>2016-02-14T09:11:01Z</time>
      </trkpt>
      <trkpt lat="43.50669" lon="6.66706">
        <ele>71.5</ele>
        <time>2016-02-14T09:11:12Z</time>
      </trkpt>
      <trkpt lat="43.50691" lon="6.66651">
        <ele>72.2</ele>
        <time>2016-02-14T09:11:26Z</time>
      </trkpt>
      <trkpt lat="43.50711" lon="6.66595">
        <ele>72.9</ele>
        <time>2016-02-14T09:11:42Z</time>
      </trkpt>
      <trkpt lat="43.50741" lon="6.66545">
        <ele>74.7</ele>
        <time>2016-02-14T09:12:00Z</time>
      </trkpt>
      <trkpt lat="43.5078" lon="6.66513">
        <ele>76.2</ele>
        <time>2016-02-14T09:12:15Z</time>
      </trkpt>
      <trkpt lat="43.50824" lon="6.66489">
        <ele>77.9</ele>
        <time>2016-02-14T09:12:31Z</time>
      </trkpt>
      <trkpt lat="43.50866" lon="6.66463">
        <ele>79.9</ele>
        <time>2016-02-14T09:12:48Z</time>
      </trkpt>
      <trkpt lat="43.50903" lon="6.66426">
        <ele>81.8</ele>
        <time>2016-02-14T09:13:05Z</time>
      </trkpt>
      <trkpt lat="43.50928" lon="6.66371">
        <ele>83.9</ele>
        <time>2016-02-14T09:13:23Z</time>
      </trkpt>
      <trkpt lat="43.50952" lon="6.66317">
        <ele>85.5</ele>
        <time>2016-02-14T09:13:39Z</time>
      </trkpt>
      <trkpt lat="43.50976" lon="6.66262">
        <ele>87.3</ele>
        <time>2016-02-14T09:13:56Z</time>
      </trkpt>
      <trkpt lat="43.50998" lon="6.66207">
        <ele>88.7</ele>
        <time>2016-02-14T09:14:13Z</time>
      </trkpt>
      <trkpt lat="43.51017" lon="6.66149">
        <ele>89.5</ele>
        <time>2016-02-14T09:14:27Z</time>
      </trkpt>
      <trkpt lat="43.51043" lon="6.66095">
        <ele>90.3</ele>
        <time>2016-02-14T09:14:43Z</time>
      </trkpt>
      <trkpt lat="43.51069" lon="6.66043">
        <ele>90.9</ele>
        <time>2016-02-14T09:14:56Z</time>
      </trkpt>
      <trkpt lat="43.51093" lon="6.65988">
        <ele>91.4</ele>
        <time>2016-02-14T09:15:10Z</time>
      </trkpt>
      <trkpt lat="43.51117" lon="6.65933">
        <ele>93.7</ele>
        <time>2016-02-14T09:15:27Z</time>
      </trkpt>
      <trkpt lat="43.51144" lon="6.65883">
        <ele>95.5</ele>
        <time>2016-02-14T09:15:43Z</time>
      </trkpt>
      <trkpt lat="43.51199" lon="6.65773">
        <ele>92.9</ele>
        <time>2016-02-14T09:16:14Z</time>
      </trkpt>
      <trkpt lat="43.51199" lon="6.65773">
        <ele>92.9</ele>
        <time>2016-02-14T09:20:23Z</time>
      </trkpt>
      <trkpt lat="43.51226" lon="6.65712">
        <ele>87.7</ele>
        <time>2016-02-14T09:20:29Z</time>
      </trkpt>
      <trkpt lat="43.51234" lon="6.65648">
        <ele>85.7</ele>
        <time>2016-02-14T09:20:36Z</time>
      </trkpt>
      <trkpt lat="43.51243" lon="6.65584">
        <ele>85.1</ele>
        <time>2016-02-14T09:20:45Z</time>
      </trkpt>
      <trkpt lat="43.51238" lon="6.65522">
        <ele>88.7</ele>
        <time>2016-02-14T09:20:59Z</time>
      </trkpt>
      <trkpt lat="43.51212" lon="6.65469">
        <ele>92</ele>
        <time>2016-02-14T09:21:18Z</time>
      </trkpt>
      <trkpt lat="43.51199" lon="6.65447">
        <ele>92.1</ele>
        <time>2016-02-14T09:21:26Z</time>
      </trkpt>
      <trkpt lat="43.51197" lon="6.654">
        <ele>92.3</ele>
        <time>2016-02-14T09:21:40Z</time>
      </trkpt>
      <trkpt lat="43.51231" lon="6.65358">
        <ele>92.9</ele>
        <time>2016-02-14T09:21:58Z</time>
      </trkpt>
      <trkpt lat="43.51259" lon="6.65307">
        <ele>93</ele>
        <time>2016-02-14T09:22:14Z</time>
      </trkpt>
      <trkpt lat="43.51288" lon="6.65259">
        <ele>94.5</ele>
        <time>2016-02-14T09:22:30Z</time>
      </trkpt>
      <trkpt lat="43.51315" lon="6.65207">
        <ele>97.9</ele>
        <time>2016-02-14T09:22:48Z</time>
      </trkpt>
      <trkpt lat="43.51339" lon="6.65152">
        <ele>95.2</ele>
        <time>2016-02-14T09:22:59Z</time>
      </trkpt>
      <trkpt lat="43.51369" lon="6.65102">
        <ele>94.7</ele>
        <time>2016-02-14T09:23:11Z</time>
      </trkpt>
      <trkpt lat="43.51392" lon="6.65047">
        <ele>97.3</ele>
        <time>2016-02-14T09:23:29Z</time>
      </trkpt>
      <trkpt lat="43.51419" lon="6.64996">
        <ele>100.9</ele>
        <time>2016-02-14T09:23:49Z</time>
      </trkpt>
      <trkpt lat="43.51462" lon="6.64976">
        <ele>104.4</ele>
        <time>2016-02-14T09:24:09Z</time>
      </trkpt>
      <trkpt lat="43.51508" lon="6.64975">
        <ele>108.3</ele>
        <time>2016-02-14T09:24:26Z</time>
      </trkpt>
      <trkpt lat="43.51535" lon="6.64933">
        <ele>111.1</ele>
        <time>2016-02-14T09:24:43Z</time>
      </trkpt>
      <trkpt lat="43.5153" lon="6.6487">
        <ele>114.9</ele>
        <time>2016-02-14T09:25:02Z</time>
      </trkpt>
      <trkpt lat="43.51518" lon="6.64796">
        <ele>115.4</ele>
        <time>2016-02-14T09:25:22Z</time>
      </trkpt>
      <trkpt lat="43.51518" lon="6.64796">
        <ele>115.4</ele>
        <time>2016-02-14T09:28:59Z</time>
      </trkpt>
      <trkpt lat="43.51492" lon="6.64785">
        <ele>113.9</ele>
        <time>2016-02-14T09:28:59Z</time>
      </trkpt>
      <trkpt lat="43.5144" lon="6.64789">
        <ele>111.9</ele>
        <time>2016-02-14T09:29:07Z</time>
      </trkpt>
      <trkpt lat="43.51389" lon="6.64788">
        <ele>109.6</ele>
        <time>2016-02-14T09:29:14Z</time>
      </trkpt>
      <trkpt lat="43.51343" lon="6.64782">
        <ele>107.3</ele>
        <time>2016-02-14T09:29:21Z</time>
      </trkpt>
      <trkpt lat="43.51302" lon="6.64754">
        <ele>105.5</ele>
        <time>2016-02-14T09:29:28Z</time>
      </trkpt>
      <trkpt lat="43.51274" lon="6.64732">
        <ele>105.7</ele>
        <time>2016-02-14T09:29:33Z</time>
      </trkpt>
      <trkpt lat="43.51238" lon="6.64699">
        <ele>105.9</ele>
        <time>2016-02-14T09:29:39Z</time>
      </trkpt>
      <trkpt lat="43.51214" lon="6.64653">
        <ele>105</ele>
        <time>2016-02-14T09:29:46Z</time>
      </trkpt>
      <trkpt lat="43.51215" lon="6.64648">
        <ele>104.9</ele>
        <time>2016-02-14T09:29:47Z</time>
      </trkpt>
      <trkpt lat="43.51201" lon="6.64592">
        <ele>103.9</ele>
        <time>2016-02-14T09:29:55Z</time>
      </trkpt>
      <trkpt lat="43.51198" lon="6.64562">
        <ele>103.6</ele>
        <time>2016-02-14T09:29:59Z</time>
      </trkpt>
      <trkpt lat="43.51202" lon="6.64497">
        <ele>103.5</ele>
        <time>2016-02-14T09:30:07Z</time>
      </trkpt>
      <trkpt lat="43.51205" lon="6.64451">
        <ele>102.7</ele>
        <time>2016-02-14T09:30:13Z</time>
      </trkpt>
      <trkpt lat="43.51225" lon="6.6439">
        <ele>101.5</ele>
        <time>2016-02-14T09:30:21Z</time>
      </trkpt>
      <trkpt lat="43.51256" lon="6.6434">
        <ele>100.4</ele>
        <time>2016-02-14T09:30:28Z</time>
      </trkpt>
      <trkpt lat="43.51292" lon="6.64293">
        <ele>99.1</ele>
        <time>2016-02-14T09:30:37Z</time>
      </trkpt>
      <trkpt lat="43.51323" lon="6.64244">
        <ele>97.5</ele>
        <time>2016-02-14T09:30:45Z</time>
      </trkpt>
      <trkpt lat="43.51333" lon="6.64235">
        <ele>96.8</ele>
        <time>2016-02-14T09:30:47Z</time>
      </trkpt>
      <trkpt lat="43.51361" lon="6.6418">
        <ele>95.4</ele>
        <time>2016-02-14T09:30:54Z</time>
      </trkpt>
      <trkpt lat="43.51382" lon="6.64115">
        <ele>93.1</ele>
        <time>2016-02-14T09:31:02Z</time>
      </trkpt>
      <trkpt lat="43.514" lon="6.64057">
        <ele>91.2</ele>
        <time>2016-02-14T09:31:08Z</time>
      </trkpt>
      <trkpt lat="43.5142" lon="6.63997">
        <ele>89</ele>
        <time>2016-02-14T09:31:15Z</time>
      </trkpt>
      <trkpt lat="43.51433" lon="6.63937">
        <ele>86.7</ele>
        <time>2016-02-14T09:31:23Z</time>
      </trkpt>
      <trkpt lat="43.51444" lon="6.63891">
        <ele>87.7</ele>
        <time>2016-02-14T09:31:29Z</time>
      </trkpt>
      <trkpt lat="43.51444" lon="6.63891">
        <ele>87.7</ele>
        <time>2016-02-14T09:32:59Z</time>
      </trkpt>
      <trkpt lat="43.51454" lon="6.63855">
        <ele>89.2</ele>
        <time>2016-02-14T09:33:10Z</time>
      </trkpt>
      <trkpt lat="43.51493" lon="6.63823">
        <ele>92.2</ele>
        <time>2016-02-14T09:33:31Z</time>
      </trkpt>
      <trkpt lat="43.51535" lon="6.63794">
        <ele>94.9</ele>
        <time>2016-02-14T09:33:52Z</time>
      </trkpt>
      <trkpt lat="43.51574" lon="6.63761">
        <ele>99.3</ele>
        <time>2016-02-14T09:34:15Z</time>
      </trkpt>
      <trkpt lat="43.51612" lon="6.63727">
        <ele>104.2</ele>
        <time>2016-02-14T09:34:40Z</time>
      </trkpt>
      <trkpt lat="43.51652" lon="6.63696">
        <ele>109.9</ele>
        <time>2016-02-14T09:35:04Z</time>
      </trkpt>
      <trkpt lat="43.51687" lon="6.63677">
        <ele>115.2</ele>
        <time>2016-02-14T09:35:25Z</time>
      </trkpt>
      <trkpt lat="43.51696" lon="6.63738">
        <ele>121.9</ele>
        <time>2016-02-14T09:35:45Z</time>
      </trkpt>
      <trkpt lat="43.51703" lon="6.63801">
        <ele>126.1</ele>
        <time>2016-02-14T09:36:05Z</time>
      </trkpt>
      <trkpt lat="43.51727" lon="6.63858">
        <ele>128.1</ele>
        <time>2016-02-14T09:36:23Z</time>
      </trkpt>
      <trkpt lat="43.51727" lon="6.63884">
        <ele>128.8</ele>
        <time>2016-02-14T09:36:30Z</time>
      </trkpt>
      <trkpt lat="43.51705" lon="6.63939">
        <ele>130.5</ele>
        <time>2016-02-14T09:36:45Z</time>
      </trkpt>
      <trkpt lat="43.5169" lon="6.64001">
        <ele>133</ele>
        <time>2016-02-14T09:37:02Z</time>
      </trkpt>
      <trkpt lat="43.51664" lon="6.64056">
        <ele>135.9</ele>
        <time>2016-02-14T09:37:18Z</time>
      </trkpt>
      <trkpt lat="43.51644" lon="6.64114">
        <ele>138.3</ele>
        <time>2016-02-14T09:37:33Z</time>
      </trkpt>
      <trkpt lat="43.51637" lon="6.64175">
        <ele>140.7</ele>
        <time>2016-02-14T09:37:48Z</time>
      </trkpt>
      <trkpt lat="43.51634" lon="6.64238">
        <ele>142.9</ele>
        <time>2016-02-14T09:38:03Z</time>
      </trkpt>
      <trkpt lat="43.51647" lon="6.64298">
        <ele>145.2</ele>
        <time>2016-02-14T09:38:18Z</time>
      </trkpt>
      <trkpt lat="43.51642" lon="6.64324">
        <ele>146.4</ele>
        <time>2016-02-14T09:38:24Z</time>
      </trkpt>
      <trkpt lat="43.51602" lon="6.64355">
        <ele>148.9</ele>
        <time>2016-02-14T09:38:39Z</time>
      </trkpt>
      <trkpt lat="43.51584" lon="6.64414">
        <ele>151.2</ele>
        <time>2016-02-14T09:38:54Z</time>
      </trkpt>
      <trkpt lat="43.51556" lon="6.64466">
        <ele>154.4</ele>
        <time>2016-02-14T09:39:06Z</time>
      </trkpt>
      <trkpt lat="43.51536" lon="6.64526">
        <ele>157.2</ele>
        <time>2016-02-14T09:39:21Z</time>
      </trkpt>
      <trkpt lat="43.51539" lon="6.64591">
        <ele>159.3</ele>
        <time>2016-02-14T09:39:36Z</time>
      </trkpt>
      <trkpt lat="43.51529" lon="6.64655">
        <ele>161.3</ele>
        <time>2016-02-14T09:39:51Z</time>
      </trkpt>
      <trkpt lat="43.51537" lon="6.64689">
        <ele>162.7</ele>
        <time>2016-02-14T09:39:59Z</time>
      </trkpt>
      <trkpt lat="43.5158" lon="6.64713">
        <ele>166</ele>
        <time>2016-02-14T09:40:13Z</time>
      </trkpt>
      <trkpt lat="43.51624" lon="6.64731">
        <ele>168.1</ele>
        <time>2016-02-14T09:40:27Z</time>
      </trkpt>
      <trkpt lat="43.51671" lon="6.64737">
        <ele>170.2</ele>
        <time>2016-02-14T09:40:43Z</time>
      </trkpt>
      <trkpt lat="43.51709" lon="6.64773">
        <ele>172.9</ele>
        <time>2016-02-14T09:40:59Z</time>
      </trkpt>
      <trkpt lat="43.51727" lon="6.6483">
        <ele>176.3</ele>
        <time>2016-02-14T09:41:16Z</time>
      </trkpt>
      <trkpt lat="43.51762" lon="6.6487">
        <ele>178.7</ele>
        <time>2016-02-14T09:41:30Z</time>
      </trkpt>
      <trkpt lat="43.51804" lon="6.64899">
        <ele>182</ele>
        <time>2016-02-14T09:41:49Z</time>
      </trkpt>
      <trkpt lat="43.51811" lon="6.64911">
        <ele>183.3</ele>
        <time>2016-02-14T09:41:54Z</time>
      </trkpt>
      <trkpt lat="43.51806" lon="6.6493">
        <ele>184.7</ele>
        <time>2016-02-14T09:41:59Z</time>
      </trkpt>
      <trkpt lat="43.51779" lon="6.64958">
        <ele>186.1</ele>
        <time>2016-02-14T09:42:11Z</time>
      </trkpt>
      <trkpt lat="43.51741" lon="6.64995">
        <ele>187.5</ele>
        <time>2016-02-14T09:42:28Z</time>
      </trkpt>
      <trkpt lat="43.51702" lon="6.65028">
        <ele>189.3</ele>
        <time>2016-02-14T09:42:45Z</time>
      </trkpt>
      <trkpt lat="43.51669" lon="6.65071">
        <ele>191.3</ele>
        <time>2016-02-14T09:43:01Z</time>
      </trkpt>
      <trkpt lat="43.51622" lon="6.65081">
        <ele>194.3</ele>
        <time>2016-02-14T09:43:19Z</time>
      </trkpt>
      <trkpt lat="43.51605" lon="6.65129">
        <ele>196.5</ele>
        <time>2016-02-14T09:43:32Z</time>
      </trkpt>
      <trkpt lat="43.51621" lon="6.65188">
        <ele>199.6</ele>
        <time>2016-02-14T09:43:47Z</time>
      </trkpt>
      <trkpt lat="43.51613" lon="6.65249">
        <ele>202.3</ele>
        <time>2016-02-14T09:44:02Z</time>
      </trkpt>
      <trkpt lat="43.51625" lon="6.65308">
        <ele>205</ele>
        <time>2016-02-14T09:44:17Z</time>
      </trkpt>
      <trkpt lat="43.51614" lon="6.65358">
        <ele>207.6</ele>
        <time>2016-02-14T09:44:29Z</time>
      </trkpt>
      <trkpt lat="43.51622" lon="6.65375">
        <ele>209</ele>
        <time>2016-02-14T09:44:34Z</time>
      </trkpt>
      <trkpt lat="43.51647" lon="6.65377">
        <ele>210.7</ele>
        <time>2016-02-14T09:44:42Z</time>
      </trkpt>
      <trkpt lat="43.51663" lon="6.65318">
        <ele>212.8</ele>
        <time>2016-02-14T09:44:58Z</time>
      </trkpt>
      <trkpt lat="43.51667" lon="6.65254">
        <ele>215.1</ele>
        <time>2016-02-14T09:45:14Z</time>
      </trkpt>
      <trkpt lat="43.51685" lon="6.65197">
        <ele>217.8</ele>
        <time>2016-02-14T09:45:33Z</time>
      </trkpt>
      <trkpt lat="43.51723" lon="6.65158">
        <ele>220.9</ele>
        <time>2016-02-14T09:45:52Z</time>
      </trkpt>
      <trkpt lat="43.51763" lon="6.65121">
        <ele>224</ele>
        <time>2016-02-14T09:46:11Z</time>
      </trkpt>
      <trkpt lat="43.51809" lon="6.65105">
        <ele>226.4</ele>
        <time>2016-02-14T09:46:30Z</time>
      </trkpt>
      <trkpt lat="43.51851" lon="6.65083">
        <ele>229.2</ele>
        <time>2016-02-14T09:46:47Z</time>
      </trkpt>
      <trkpt lat="43.51897" lon="6.65068">
        <ele>232.3</ele>
        <time>2016-02-14T09:47:05Z</time>
      </trkpt>
      <trkpt lat="43.51944" lon="6.65058">
        <ele>234.4</ele>
        <time>2016-02-14T09:47:23Z</time>
      </trkpt>
      <trkpt lat="43.5199" lon="6.65054">
        <ele>235.5</ele>
        <time>2016-02-14T09:47:41Z</time>
      </trkpt>
      <trkpt lat="43.52072" lon="6.64989">
        <ele>243</ele>
        <time>2016-02-14T09:48:09Z</time>
      </trkpt>
      <trkpt lat="43.52072" lon="6.64989">
        <ele>243</ele>
        <time>2016-02-14T09:53:46Z</time>
      </trkpt>
      <trkpt lat="43.52117" lon="6.64962">
        <ele>247.7</ele>
        <time>2016-02-14T09:53:59Z</time>
      </trkpt>
      <trkpt lat="43.52152" lon="6.64922">
        <ele>252.5</ele>
        <time>2016-02-14T09:54:24Z</time>
      </trkpt>
      <trkpt lat="43.52163" lon="6.64898">
        <ele>254.7</ele>
        <time>2016-02-14T09:54:36Z</time>
      </trkpt>
      <trkpt lat="43.52155" lon="6.64886">
        <ele>255.6</ele>
        <time>2016-02-14T09:54:42Z</time>
      </trkpt>
      <trkpt lat="43.52113" lon="6.64915">
        <ele>258.4</ele>
        <time>2016-02-14T09:55:03Z</time>
      </trkpt>
      <trkpt lat="43.52092" lon="6.64923">
        <ele>259.3</ele>
        <time>2016-02-14T09:55:13Z</time>
      </trkpt>
      <trkpt lat="43.52071" lon="6.64867">
        <ele>261.9</ele>
        <time>2016-02-14T09:55:32Z</time>
      </trkpt>
      <trkpt lat="43.52053" lon="6.6481">
        <ele>265.3</ele>
        <time>2016-02-14T09:55:52Z</time>
      </trkpt>
      <trkpt lat="43.52033" lon="6.64752">
        <ele>268.3</ele>
        <time>2016-02-14T09:56:13Z</time>
      </trkpt>
      <trkpt lat="43.5202" lon="6.64691">
        <ele>271</ele>
        <time>2016-02-14T09:56:31Z</time>
      </trkpt>
      <trkpt lat="43.52011" lon="6.64627">
        <ele>272.7</ele>
        <time>2016-02-14T09:56:49Z</time>
      </trkpt>
      <trkpt lat="43.5198" lon="6.6458">
        <ele>274.4</ele>
        <time>2016-02-14T09:57:06Z</time>
      </trkpt>
      <trkpt lat="43.51968" lon="6.64551">
        <ele>275</ele>
        <time>2016-02-14T09:57:15Z</time>
      </trkpt>
      <trkpt lat="43.51983" lon="6.64492">
        <ele>275.8</ele>
        <time>2016-02-14T09:57:31Z</time>
      </trkpt>
      <trkpt lat="43.5201" lon="6.6445">
        <ele>276.3</ele>
        <time>2016-02-14T09:57:42Z</time>
      </trkpt>
      <trkpt lat="43.52023" lon="6.64439">
        <ele>276.4</ele>
        <time>2016-02-14T09:57:45Z</time>
      </trkpt>
      <trkpt lat="43.52022" lon="6.64408">
        <ele>276.6</ele>
        <time>2016-02-14T09:57:50Z</time>
      </trkpt>
      <trkpt lat="43.52003" lon="6.64349">
        <ele>278.5</ele>
        <time>2016-02-14T09:58:08Z</time>
      </trkpt>
      <trkpt lat="43.52014" lon="6.64286">
        <ele>282.8</ele>
        <time>2016-02-14T09:58:29Z</time>
      </trkpt>
      <trkpt lat="43.52089" lon="6.64171">
        <ele>298.7</ele>
        <time>2016-02-14T09:59:18Z</time>
      </trkpt>
      <trkpt lat="43.52089" lon="6.64171">
        <ele>298.7</ele>
        <time>2016-02-14T10:00:55Z</time>
      </trkpt>
      <trkpt lat="43.52138" lon="6.64108">
        <ele>308.3</ele>
        <time>2016-02-14T10:00:56Z</time>
      </trkpt>
      <trkpt lat="43.52172" lon="6.6406">
        <ele>307.2</ele>
        <time>2016-02-14T10:01:11Z</time>
      </trkpt>
      <trkpt lat="43.52186" lon="6.64037">
        <ele>305.9</ele>
        <time>2016-02-14T10:01:16Z</time>
      </trkpt>
      <trkpt lat="43.52194" lon="6.64004">
        <ele>304.3</ele>
        <time>2016-02-14T10:01:21Z</time>
      </trkpt>
      <trkpt lat="43.52232" lon="6.63955">
        <ele>300.8</ele>
        <time>2016-02-14T10:01:28Z</time>
      </trkpt>
      <trkpt lat="43.52253" lon="6.63934">
        <ele>298.9</ele>
        <time>2016-02-14T10:01:31Z</time>
      </trkpt>
      <trkpt lat="43.52276" lon="6.63924">
        <ele>297</ele>
        <time>2016-02-14T10:01:34Z</time>
      </trkpt>
      <trkpt lat="43.523" lon="6.63924">
        <ele>294.6</ele>
        <time>2016-02-14T10:01:38Z</time>
      </trkpt>
      <trkpt lat="43.5231" lon="6.63917">
        <ele>293.4</ele>
        <time>2016-02-14T10:01:40Z</time>
      </trkpt>
      <trkpt lat="43.5232" lon="6.63891">
        <ele>291.6</ele>
        <time>2016-02-14T10:01:43Z</time>
      </trkpt>
      <trkpt lat="43.5232" lon="6.63871">
        <ele>290.4</ele>
        <time>2016-02-14T10:01:45Z</time>
      </trkpt>
      <trkpt lat="43.52317" lon="6.63845">
        <ele>289.2</ele>
        <time>2016-02-14T10:01:47Z</time>
      </trkpt>
      <trkpt lat="43.52304" lon="6.63777">
        <ele>286.2</ele>
        <time>2016-02-14T10:01:52Z</time>
      </trkpt>
      <trkpt lat="43.52295" lon="6.63708">
        <ele>282.5</ele>
        <time>2016-02-14T10:01:57Z</time>
      </trkpt>
      <trkpt lat="43.52297" lon="6.63674">
        <ele>280.7</ele>
        <time>2016-02-14T10:02:00Z</time>
      </trkpt>
      <trkpt lat="43.5233" lon="6.63618">
        <ele>277.1</ele>
        <time>2016-02-14T10:02:07Z</time>
      </trkpt>
      <trkpt lat="43.5234" lon="6.63586">
        <ele>275.6</ele>
        <time>2016-02-14T10:02:10Z</time>
      </trkpt>
      <trkpt lat="43.52346" lon="6.63517">
        <ele>275.2</ele>
        <time>2016-02-14T10:02:17Z</time>
      </trkpt>
      <trkpt lat="43.52348" lon="6.63454">
        <ele>275</ele>
        <time>2016-02-14T10:02:27Z</time>
      </trkpt>
      <trkpt lat="43.5235" lon="6.63392">
        <ele>275</ele>
        <time>2016-02-14T10:02:41Z</time>
      </trkpt>
      <trkpt lat="43.52339" lon="6.6333">
        <ele>274.9</ele>
        <time>2016-02-14T10:03:05Z</time>
      </trkpt>
      <trkpt lat="43.52353" lon="6.63268">
        <ele>274.9</ele>
        <time>2016-02-14T10:03:21Z</time>
      </trkpt>
      <trkpt lat="43.52372" lon="6.63209">
        <ele>271.7</ele>
        <time>2016-02-14T10:03:30Z</time>
      </trkpt>
      <trkpt lat="43.5239" lon="6.63145">
        <ele>270.3</ele>
        <time>2016-02-14T10:03:39Z</time>
      </trkpt>
      <trkpt lat="43.52408" lon="6.63088">
        <ele>274.6</ele>
        <time>2016-02-14T10:03:56Z</time>
      </trkpt>
      <trkpt lat="43.52415" lon="6.63026">
        <ele>279.1</ele>
        <time>2016-02-14T10:04:15Z</time>
      </trkpt>
      <trkpt lat="43.52441" lon="6.62974">
        <ele>281.5</ele>
        <time>2016-02-14T10:04:33Z</time>
      </trkpt>
      <trkpt lat="43.52476" lon="6.62934">
        <ele>286.2</ele>
        <time>2016-02-14T10:04:56Z</time>
      </trkpt>
      <trkpt lat="43.52511" lon="6.62893">
        <ele>290.9</ele>
        <time>2016-02-14T10:05:19Z</time>
      </trkpt>
      <trkpt lat="43.52539" lon="6.62843">
        <ele>293.5</ele>
        <time>2016-02-14T10:05:46Z</time>
      </trkpt>
      <trkpt lat="43.52574" lon="6.62814">
        <ele>294.6</ele>
        <time>2016-02-14T10:06:03Z</time>
      </trkpt>
      <trkpt lat="43.52619" lon="6.62813">
        <ele>296.2</ele>
        <time>2016-02-14T10:06:19Z</time>
      </trkpt>
      <trkpt lat="43.52665" lon="6.62803">
        <ele>298.2</ele>
        <time>2016-02-14T10:06:35Z</time>
      </trkpt>
      <trkpt lat="43.52675" lon="6.6274">
        <ele>301.8</ele>
        <time>2016-02-14T10:06:54Z</time>
      </trkpt>
      <trkpt lat="43.52682" lon="6.62677">
        <ele>305</ele>
        <time>2016-02-14T10:07:13Z</time>
      </trkpt>
      <trkpt lat="43.52677" lon="6.62613">
        <ele>307.8</ele>
        <time>2016-02-14T10:07:32Z</time>
      </trkpt>
      <trkpt lat="43.52667" lon="6.62552">
        <ele>308.9</ele>
        <time>2016-02-14T10:07:50Z</time>
      </trkpt>
      <trkpt lat="43.5266" lon="6.62515">
        <ele>309.1</ele>
        <time>2016-02-14T10:08:01Z</time>
      </trkpt>
      <trkpt lat="43.52667" lon="6.62501">
        <ele>309.2</ele>
        <time>2016-02-14T10:08:05Z</time>
      </trkpt>
      <trkpt lat="43.52678" lon="6.62502">
        <ele>309.3</ele>
        <time>2016-02-14T10:08:09Z</time>
      </trkpt>
      <trkpt lat="43.52695" lon="6.62562">
        <ele>309.6</ele>
        <time>2016-02-14T10:08:23Z</time>
      </trkpt>
      <trkpt lat="43.52709" lon="6.62624">
        <ele>312.9</ele>
        <time>2016-02-14T10:08:43Z</time>
      </trkpt>
      <trkpt lat="43.52726" lon="6.62662">
        <ele>316.7</ele>
        <time>2016-02-14T10:08:58Z</time>
      </trkpt>
      <trkpt lat="43.52765" lon="6.62627">
        <ele>320.4</ele>
        <time>2016-02-14T10:09:21Z</time>
      </trkpt>
      <trkpt lat="43.52809" lon="6.62611">
        <ele>323.8</ele>
        <time>2016-02-14T10:09:44Z</time>
      </trkpt>
      <trkpt lat="43.52838" lon="6.62563">
        <ele>327.6</ele>
        <time>2016-02-14T10:10:05Z</time>
      </trkpt>
      <trkpt lat="43.52823" lon="6.62504">
        <ele>330.3</ele>
        <time>2016-02-14T10:10:25Z</time>
      </trkpt>
      <trkpt lat="43.52831" lon="6.62449">
        <ele>333.1</ele>
        <time>2016-02-14T10:10:46Z</time>
      </trkpt>
      <trkpt lat="43.52867" lon="6.6241">
        <ele>339.6</ele>
        <time>2016-02-14T10:11:09Z</time>
      </trkpt>
      <trkpt lat="43.529" lon="6.62367">
        <ele>347.8</ele>
        <time>2016-02-14T10:11:49Z</time>
      </trkpt>
      <trkpt lat="43.529" lon="6.62367">
        <ele>347.8</ele>
        <time>2016-02-14T10:15:50Z</time>
      </trkpt>
      <trkpt lat="43.52899" lon="6.62367">
        <ele>348.8</ele>
        <time>2016-02-14T10:15:54Z</time>
      </trkpt>
      <trkpt lat="43.52868" lon="6.62413">
        <ele>345.3</ele>
        <time>2016-02-14T10:16:05Z</time>
      </trkpt>
      <trkpt lat="43.52852" lon="6.62436">
        <ele>342.9</ele>
        <time>2016-02-14T10:16:09Z</time>
      </trkpt>
      <trkpt lat="43.52827" lon="6.62454">
        <ele>339.7</ele>
        <time>2016-02-14T10:16:13Z</time>
      </trkpt>
      <trkpt lat="43.52817" lon="6.62469">
        <ele>338</ele>
        <time>2016-02-14T10:16:15Z</time>
      </trkpt>
      <trkpt lat="43.52813" lon="6.62489">
        <ele>337.3</ele>
        <time>2016-02-14T10:16:17Z</time>
      </trkpt>
      <trkpt lat="43.52829" lon="6.62553">
        <ele>334.7</ele>
        <time>2016-02-14T10:16:24Z</time>
      </trkpt>
      <trkpt lat="43.52829" lon="6.62579">
        <ele>333.3</ele>
        <time>2016-02-14T10:16:27Z</time>
      </trkpt>
      <trkpt lat="43.52823" lon="6.62594">
        <ele>331.9</ele>
        <time>2016-02-14T10:16:29Z</time>
      </trkpt>
      <trkpt lat="43.52799" lon="6.6262">
        <ele>329</ele>
        <time>2016-02-14T10:16:33Z</time>
      </trkpt>
      <trkpt lat="43.52763" lon="6.6263">
        <ele>326.3</ele>
        <time>2016-02-14T10:16:37Z</time>
      </trkpt>
      <trkpt lat="43.52734" lon="6.6266">
        <ele>323.3</ele>
        <time>2016-02-14T10:16:42Z</time>
      </trkpt>
      <trkpt lat="43.52725" lon="6.62662">
        <ele>322.3</ele>
        <time>2016-02-14T10:16:44Z</time>
      </trkpt>
      <trkpt lat="43.52716" lon="6.62651">
        <ele>321.3</ele>
        <time>2016-02-14T10:16:46Z</time>
      </trkpt>
      <trkpt lat="43.52703" lon="6.62599">
        <ele>318.8</ele>
        <time>2016-02-14T10:16:51Z</time>
      </trkpt>
      <trkpt lat="43.52685" lon="6.62553">
        <ele>316.2</ele>
        <time>2016-02-14T10:16:58Z</time>
      </trkpt>
      <trkpt lat="43.52682" lon="6.62556">
        <ele>315.6</ele>
        <time>2016-02-14T10:17:00Z</time>
      </trkpt>
      <trkpt lat="43.52683" lon="6.62564">
        <ele>315</ele>
        <time>2016-02-14T10:17:02Z</time>
      </trkpt>
      <trkpt lat="43.52671" lon="6.62599">
        <ele>312.3</ele>
        <time>2016-02-14T10:17:11Z</time>
      </trkpt>
      <trkpt lat="43.52679" lon="6.62669">
        <ele>309.4</ele>
        <time>2016-02-14T10:17:20Z</time>
      </trkpt>
      <trkpt lat="43.52676" lon="6.6274">
        <ele>307.1</ele>
        <time>2016-02-14T10:17:27Z</time>
      </trkpt>
      <trkpt lat="43.5267" lon="6.62781">
        <ele>304.3</ele>
        <time>2016-02-14T10:17:31Z</time>
      </trkpt>
      <trkpt lat="43.52657" lon="6.62807">
        <ele>302.3</ele>
        <time>2016-02-14T10:17:35Z</time>
      </trkpt>
      <trkpt lat="43.52644" lon="6.62809">
        <ele>301.6</ele>
        <time>2016-02-14T10:17:37Z</time>
      </trkpt>
      <trkpt lat="43.52572" lon="6.62778">
        <ele>300</ele>
        <time>2016-02-14T10:17:49Z</time>
      </trkpt>
      <trkpt lat="43.52572" lon="6.62778">
        <ele>300</ele>
        <time>2016-02-14T10:18:48Z</time>
      </trkpt>
      <trkpt lat="43.52546" lon="6.62748">
        <ele>300.4</ele>
        <time>2016-02-14T10:18:52Z</time>
      </trkpt>
      <trkpt lat="43.52559" lon="6.62686">
        <ele>299.2</ele>
        <time>2016-02-14T10:19:04Z</time>
      </trkpt>
      <trkpt lat="43.52575" lon="6.62622">
        <ele>298.1</ele>
        <time>2016-02-14T10:19:16Z</time>
      </trkpt>
      <trkpt lat="43.52577" lon="6.62559">
        <ele>293.9</ele>
        <time>2016-02-14T10:19:28Z</time>
      </trkpt>
      <trkpt lat="43.52566" lon="6.62497">
        <ele>282.9</ele>
        <time>2016-02-14T10:19:45Z</time>
      </trkpt>
      <trkpt lat="43.52561" lon="6.62462">
        <ele>277.9</ele>
        <time>2016-02-14T10:19:54Z</time>
      </trkpt>
      <trkpt lat="43.52528" lon="6.62439">
        <ele>273.9</ele>
        <time>2016-02-14T10:19:56Z</time>
      </trkpt>
      <trkpt lat="43.52528" lon="6.62439">
        <ele>273.9</ele>
        <time>2016-02-14T10:21:35Z</time>
      </trkpt>
      <trkpt lat="43.52498" lon="6.62421">
        <ele>270.6</ele>
        <time>2016-02-14T10:21:41Z</time>
      </trkpt>
      <trkpt lat="43.52475" lon="6.62417">
        <ele>269.2</ele>
        <time>2016-02-14T10:21:46Z</time>
      </trkpt>
      <trkpt lat="43.52435" lon="6.62387">
        <ele>266</ele>
        <time>2016-02-14T10:21:53Z</time>
      </trkpt>
      <trkpt lat="43.5241" lon="6.62378">
        <ele>262.4</ele>
        <time>2016-02-14T10:21:59Z</time>
      </trkpt>
      <trkpt lat="43.52362" lon="6.62371">
        <ele>260.7</ele>
        <time>2016-02-14T10:22:06Z</time>
      </trkpt>
      <trkpt lat="43.5232" lon="6.62398">
        <ele>255.5</ele>
        <time>2016-02-14T10:22:17Z</time>
      </trkpt>
      <trkpt lat="43.52292" lon="6.624">
        <ele>247.6</ele>
        <time>2016-02-14T10:22:29Z</time>
      </trkpt>
      <trkpt lat="43.52272" lon="6.62383">
        <ele>242.1</ele>
        <time>2016-02-14T10:22:38Z</time>
      </trkpt>
      <trkpt lat="43.52176" lon="6.6241">
        <ele>229.1</ele>
        <time>2016-02-14T10:22:55Z</time>
      </trkpt>
      <trkpt lat="43.52176" lon="6.6241">
        <ele>229.1</ele>
        <time>2016-02-14T10:24:20Z</time>
      </trkpt>
      <trkpt lat="43.52131" lon="6.62434">
        <ele>219.6</ele>
        <time>2016-02-14T10:24:33Z</time>
      </trkpt>
      <trkpt lat="43.52102" lon="6.62483">
        <ele>209.9</ele>
        <time>2016-02-14T10:24:56Z</time>
      </trkpt>
      <trkpt lat="43.52074" lon="6.62522">
        <ele>202</ele>
        <time>2016-02-14T10:25:09Z</time>
      </trkpt>
      <trkpt lat="43.52055" lon="6.62583">
        <ele>197.8</ele>
        <time>2016-02-14T10:25:17Z</time>
      </trkpt>
      <trkpt lat="43.52037" lon="6.62628">
        <ele>195.3</ele>
        <time>2016-02-14T10:25:22Z</time>
      </trkpt>
      <trkpt lat="43.52013" lon="6.62686">
        <ele>192.3</ele>
        <time>2016-02-14T10:25:30Z</time>
      </trkpt>
      <trkpt lat="43.51988" lon="6.62745">
        <ele>189.9</ele>
        <time>2016-02-14T10:25:40Z</time>
      </trkpt>
      <trkpt lat="43.51978" lon="6.62752">
        <ele>189.2</ele>
        <time>2016-02-14T10:25:44Z</time>
      </trkpt>
      <trkpt lat="43.5196" lon="6.62812">
        <ele>182.1</ele>
        <time>2016-02-14T10:26:04Z</time>
      </trkpt>
      <trkpt lat="43.51955" lon="6.6282">
        <ele>180.7</ele>
        <time>2016-02-14T10:26:06Z</time>
      </trkpt>
      <trkpt lat="43.51907" lon="6.62823">
        <ele>175.2</ele>
        <time>2016-02-14T10:26:14Z</time>
      </trkpt>
      <trkpt lat="43.5187" lon="6.62784">
        <ele>166.9</ele>
        <time>2016-02-14T10:26:32Z</time>
      </trkpt>
      <trkpt lat="43.5185" lon="6.62724">
        <ele>162.8</ele>
        <time>2016-02-14T10:26:46Z</time>
      </trkpt>
      <trkpt lat="43.51831" lon="6.62683">
        <ele>160.4</ele>
        <time>2016-02-14T10:26:52Z</time>
      </trkpt>
      <trkpt lat="43.51825" lon="6.62658">
        <ele>158.8</ele>
        <time>2016-02-14T10:26:56Z</time>
      </trkpt>
      <trkpt lat="43.51797" lon="6.62595">
        <ele>146.5</ele>
        <time>2016-02-14T10:27:09Z</time>
      </trkpt>
      <trkpt lat="43.51797" lon="6.62595">
        <ele>146.5</ele>
        <time>2016-02-14T10:32:25Z</time>
      </trkpt>
      <trkpt lat="43.51771" lon="6.62596">
        <ele>138.1</ele>
        <time>2016-02-14T10:32:33Z</time>
      </trkpt>
      <trkpt lat="43.51755" lon="6.62608">
        <ele>135.2</ele>
        <time>2016-02-14T10:32:36Z</time>
      </trkpt>
      <trkpt lat="43.51709" lon="6.62621">
        <ele>129.2</ele>
        <time>2016-02-14T10:32:45Z</time>
      </trkpt>
      <trkpt lat="43.51689" lon="6.62637">
        <ele>126.9</ele>
        <time>2016-02-14T10:32:53Z</time>
      </trkpt>
      <trkpt lat="43.51676" lon="6.62699">
        <ele>127.4</ele>
        <time>2016-02-14T10:33:08Z</time>
      </trkpt>
      <trkpt lat="43.51673" lon="6.62755">
        <ele>127.5</ele>
        <time>2016-02-14T10:33:27Z</time>
      </trkpt>
      <trkpt lat="43.51653" lon="6.62814">
        <ele>126.4</ele>
        <time>2016-02-14T10:33:46Z</time>
      </trkpt>
      <trkpt lat="43.5164" lon="6.62879">
        <ele>125.7</ele>
        <time>2016-02-14T10:34:00Z</time>
      </trkpt>
      <trkpt lat="43.51617" lon="6.62938">
        <ele>125.1</ele>
        <time>2016-02-14T10:34:08Z</time>
      </trkpt>
      <trkpt lat="43.51594" lon="6.62994">
        <ele>123.9</ele>
        <time>2016-02-14T10:34:16Z</time>
      </trkpt>
      <trkpt lat="43.51579" lon="6.63021">
        <ele>123</ele>
        <time>2016-02-14T10:34:21Z</time>
      </trkpt>
      <trkpt lat="43.51576" lon="6.63034">
        <ele>122.7</ele>
        <time>2016-02-14T10:34:24Z</time>
      </trkpt>
      <trkpt lat="43.51603" lon="6.63087">
        <ele>123.3</ele>
        <time>2016-02-14T10:34:42Z</time>
      </trkpt>
      <trkpt lat="43.51621" lon="6.63147">
        <ele>123.7</ele>
        <time>2016-02-14T10:34:54Z</time>
      </trkpt>
      <trkpt lat="43.51625" lon="6.63213">
        <ele>124.1</ele>
        <time>2016-02-14T10:35:06Z</time>
      </trkpt>
      <trkpt lat="43.51649" lon="6.63268">
        <ele>124.4</ele>
        <time>2016-02-14T10:35:16Z</time>
      </trkpt>
      <trkpt lat="43.51658" lon="6.63293">
        <ele>124.6</ele>
        <time>2016-02-14T10:35:21Z</time>
      </trkpt>
      <trkpt lat="43.51651" lon="6.63354">
        <ele>125.3</ele>
        <time>2016-02-14T10:35:31Z</time>
      </trkpt>
      <trkpt lat="43.51643" lon="6.63416">
        <ele>126.1</ele>
        <time>2016-02-14T10:35:41Z</time>
      </trkpt>
      <trkpt lat="43.5165" lon="6.6348">
        <ele>126.7</ele>
        <time>2016-02-14T10:35:50Z</time>
      </trkpt>
      <trkpt lat="43.51644" lon="6.63531">
        <ele>127.2</ele>
        <time>2016-02-14T10:35:58Z</time>
      </trkpt>
      <trkpt lat="43.51654" lon="6.63575">
        <ele>128.8</ele>
        <time>2016-02-14T10:36:05Z</time>
      </trkpt>
      <trkpt lat="43.51675" lon="6.63634">
        <ele>128.9</ele>
        <time>2016-02-14T10:36:16Z</time>
      </trkpt>
      <trkpt lat="43.51682" lon="6.63665">
        <ele>128.2</ele>
        <time>2016-02-14T10:36:22Z</time>
      </trkpt>
      <trkpt lat="43.51677" lon="6.63679">
        <ele>127.8</ele>
        <time>2016-02-14T10:36:25Z</time>
      </trkpt>
      <trkpt lat="43.51634" lon="6.63714">
        <ele>126.9</ele>
        <time>2016-02-14T10:36:32Z</time>
      </trkpt>
      <trkpt lat="43.51594" lon="6.63744">
        <ele>122.6</ele>
        <time>2016-02-14T10:36:36Z</time>
      </trkpt>
      <trkpt lat="43.51551" lon="6.63777">
        <ele>118.3</ele>
        <time>2016-02-14T10:36:40Z</time>
      </trkpt>
      <trkpt lat="43.51506" lon="6.63813">
        <ele>114.2</ele>
        <time>2016-02-14T10:36:44Z</time>
      </trkpt>
      <trkpt lat="43.5146" lon="6.63848">
        <ele>109.2</ele>
        <time>2016-02-14T10:36:48Z</time>
      </trkpt>
      <trkpt lat="43.51423" lon="6.63871">
        <ele>105.3</ele>
        <time>2016-02-14T10:36:52Z</time>
      </trkpt>
      <trkpt lat="43.51413" lon="6.63871">
        <ele>104.5</ele>
        <time>2016-02-14T10:36:53Z</time>
      </trkpt>
      <trkpt lat="43.51372" lon="6.6384">
        <ele>101.7</ele>
        <time>2016-02-14T10:36:58Z</time>
      </trkpt>
      <trkpt lat="43.51332" lon="6.63819">
        <ele>100.5</ele>
        <time>2016-02-14T10:37:02Z</time>
      </trkpt>
      <trkpt lat="43.51309" lon="6.63813">
        <ele>99.8</ele>
        <time>2016-02-14T10:37:04Z</time>
      </trkpt>
      <trkpt lat="43.51272" lon="6.63818">
        <ele>98.6</ele>
        <time>2016-02-14T10:37:07Z</time>
      </trkpt>
      <trkpt lat="43.51223" lon="6.63831">
        <ele>96.5</ele>
        <time>2016-02-14T10:37:11Z</time>
      </trkpt>
      <trkpt lat="43.51173" lon="6.63843">
        <ele>95.8</ele>
        <time>2016-02-14T10:37:15Z</time>
      </trkpt>
      <trkpt lat="43.51127" lon="6.63858">
        <ele>95.5</ele>
        <time>2016-02-14T10:37:19Z</time>
      </trkpt>
      <trkpt lat="43.51081" lon="6.63893">
        <ele>95.2</ele>
        <time>2016-02-14T10:37:24Z</time>
      </trkpt>
      <trkpt lat="43.5104" lon="6.63925">
        <ele>95.3</ele>
        <time>2016-02-14T10:37:29Z</time>
      </trkpt>
      <trkpt lat="43.50995" lon="6.63961">
        <ele>94.5</ele>
        <time>2016-02-14T10:37:35Z</time>
      </trkpt>
      <trkpt lat="43.50949" lon="6.63982">
        <ele>95</ele>
        <time>2016-02-14T10:37:42Z</time>
      </trkpt>
      <trkpt lat="43.50903" lon="6.64001">
        <ele>96.3</ele>
        <time>2016-02-14T10:37:49Z</time>
      </trkpt>
      <trkpt lat="43.50858" lon="6.6402">
        <ele>95.7</ele>
        <time>2016-02-14T10:37:57Z</time>
      </trkpt>
      <trkpt lat="43.50814" lon="6.64044">
        <ele>94.3</ele>
        <time>2016-02-14T10:38:05Z</time>
      </trkpt>
      <trkpt lat="43.5077" lon="6.64061">
        <ele>92.3</ele>
        <time>2016-02-14T10:38:12Z</time>
      </trkpt>
      <trkpt lat="43.50722" lon="6.64086">
        <ele>89.2</ele>
        <time>2016-02-14T10:38:19Z</time>
      </trkpt>
      <trkpt lat="43.50688" lon="6.64111">
        <ele>87.2</ele>
        <time>2016-02-14T10:38:23Z</time>
      </trkpt>
      <trkpt lat="43.50653" lon="6.64155">
        <ele>84.1</ele>
        <time>2016-02-14T10:38:28Z</time>
      </trkpt>
      <trkpt lat="43.50615" lon="6.64193">
        <ele>81</ele>
        <time>2016-02-14T10:38:33Z</time>
      </trkpt>
      <trkpt lat="43.50573" lon="6.6423">
        <ele>79.7</ele>
        <time>2016-02-14T10:38:39Z</time>
      </trkpt>
      <trkpt lat="43.50543" lon="6.64242">
        <ele>78.4</ele>
        <time>2016-02-14T10:38:45Z</time>
      </trkpt>
      <trkpt lat="43.5051" lon="6.64242">
        <ele>76.6</ele>
        <time>2016-02-14T10:38:53Z</time>
      </trkpt>
      <trkpt lat="43.50502" lon="6.64237">
        <ele>76.2</ele>
        <time>2016-02-14T10:38:55Z</time>
      </trkpt>
      <trkpt lat="43.50458" lon="6.64222">
        <ele>73.7</ele>
        <time>2016-02-14T10:39:08Z</time>
      </trkpt>
      <trkpt lat="43.50416" lon="6.64201">
        <ele>72.8</ele>
        <time>2016-02-14T10:39:17Z</time>
      </trkpt>
      <trkpt lat="43.50367" lon="6.64178">
        <ele>72.5</ele>
        <time>2016-02-14T10:39:23Z</time>
      </trkpt>
      <trkpt lat="43.50356" lon="6.64181">
        <ele>71.9</ele>
        <time>2016-02-14T10:39:24Z</time>
      </trkpt>
      <trkpt lat="43.50323" lon="6.64177">
        <ele>69.4</ele>
        <time>2016-02-14T10:39:28Z</time>
      </trkpt>
      <trkpt lat="43.50276" lon="6.64182">
        <ele>66.9</ele>
        <time>2016-02-14T10:39:33Z</time>
      </trkpt>
      <trkpt lat="43.50225" lon="6.64202">
        <ele>64.6</ele>
        <time>2016-02-14T10:39:38Z</time>
      </trkpt>
      <trkpt lat="43.5018" lon="6.64236">
        <ele>64.3</ele>
        <time>2016-02-14T10:39:43Z</time>
      </trkpt>
      <trkpt lat="43.5017" lon="6.64243">
        <ele>64.5</ele>
        <time>2016-02-14T10:39:44Z</time>
      </trkpt>
      <trkpt lat="43.50157" lon="6.64258">
        <ele>65</ele>
        <time>2016-02-14T10:39:46Z</time>
      </trkpt>
      <trkpt lat="43.50128" lon="6.64305">
        <ele>68.1</ele>
        <time>2016-02-14T10:39:52Z</time>
      </trkpt>
      <trkpt lat="43.50109" lon="6.64346">
        <ele>69.4</ele>
        <time>2016-02-14T10:39:58Z</time>
      </trkpt>
      <trkpt lat="43.50104" lon="6.64368">
        <ele>70</ele>
        <time>2016-02-14T10:40:01Z</time>
      </trkpt>
      <trkpt lat="43.5011" lon="6.64407">
        <ele>70.8</ele>
        <time>2016-02-14T10:40:09Z</time>
      </trkpt>
      <trkpt lat="43.50126" lon="6.6442">
        <ele>69.2</ele>
        <time>2016-02-14T10:40:18Z</time>
      </trkpt>
      <trkpt lat="43.50143" lon="6.6442">
        <ele>68.5</ele>
        <time>2016-02-14T10:40:23Z</time>
      </trkpt>
      <trkpt lat="43.50184" lon="6.64449">
        <ele>67.4</ele>
        <time>2016-02-14T10:40:33Z</time>
      </trkpt>
      <trkpt lat="43.50229" lon="6.64474">
        <ele>66.4</ele>
        <time>2016-02-14T10:40:41Z</time>
      </trkpt>
      <trkpt lat="43.50271" lon="6.64497">
        <ele>67.1</ele>
        <time>2016-02-14T10:40:49Z</time>
      </trkpt>
      <trkpt lat="43.50317" lon="6.64521">
        <ele>68.2</ele>
        <time>2016-02-14T10:41:00Z</time>
      </trkpt>
      <trkpt lat="43.50358" lon="6.64546">
        <ele>70</ele>
        <time>2016-02-14T10:41:11Z</time>
      </trkpt>
      <trkpt lat="43.504" lon="6.64571">
        <ele>71.8</ele>
        <time>2016-02-14T10:41:22Z</time>
      </trkpt>
      <trkpt lat="43.50442" lon="6.64603">
        <ele>74.2</ele>
        <time>2016-02-14T10:41:35Z</time>
      </trkpt>
      <trkpt lat="43.50482" lon="6.64639">
        <ele>76.5</ele>
        <time>2016-02-14T10:41:51Z</time>
      </trkpt>
      <trkpt lat="43.50525" lon="6.6466">
        <ele>79.2</ele>
        <time>2016-02-14T10:42:07Z</time>
      </trkpt>
      <trkpt lat="43.50564" lon="6.64677">
        <ele>81.2</ele>
        <time>2016-02-14T10:42:22Z</time>
      </trkpt>
      <trkpt lat="43.50589" lon="6.64728">
        <ele>82.1</ele>
        <time>2016-02-14T10:42:35Z</time>
      </trkpt>
      <trkpt lat="43.50591" lon="6.64794">
        <ele>83</ele>
        <time>2016-02-14T10:42:47Z</time>
      </trkpt>
      <trkpt lat="43.50586" lon="6.64861">
        <ele>83.7</ele>
        <time>2016-02-14T10:42:57Z</time>
      </trkpt>
      <trkpt lat="43.50585" lon="6.64925">
        <ele>85</ele>
        <time>2016-02-14T10:43:10Z</time>
      </trkpt>
      <trkpt lat="43.50594" lon="6.64986">
        <ele>88.2</ele>
        <time>2016-02-14T10:43:25Z</time>
      </trkpt>
      <trkpt lat="43.50614" lon="6.65046">
        <ele>90.5</ele>
        <time>2016-02-14T10:43:40Z</time>
      </trkpt>
      <trkpt lat="43.50643" lon="6.65099">
        <ele>92</ele>
        <time>2016-02-14T10:43:55Z</time>
      </trkpt>
      <trkpt lat="43.50675" lon="6.65147">
        <ele>93.6</ele>
        <time>2016-02-14T10:44:10Z</time>
      </trkpt>
      <trkpt lat="43.50709" lon="6.65191">
        <ele>93.4</ele>
        <time>2016-02-14T10:44:24Z</time>
      </trkpt>
      <trkpt lat="43.50752" lon="6.6522">
        <ele>93.8</ele>
        <time>2016-02-14T10:44:39Z</time>
      </trkpt>
      <trkpt lat="43.50798" lon="6.65238">
        <ele>94.1</ele>
        <time>2016-02-14T10:44:54Z</time>
      </trkpt>
      <trkpt lat="43.50842" lon="6.65256">
        <ele>94.4</ele>
        <time>2016-02-14T10:45:05Z</time>
      </trkpt>
      <trkpt lat="43.50875" lon="6.65303">
        <ele>96.3</ele>
        <time>2016-02-14T10:45:21Z</time>
      </trkpt>
      <trkpt lat="43.50904" lon="6.65352">
        <ele>100.5</ele>
        <time>2016-02-14T10:45:37Z</time>
      </trkpt>
      <trkpt lat="43.50945" lon="6.65384">
        <ele>103.4</ele>
        <time>2016-02-14T10:45:55Z</time>
      </trkpt>
      <trkpt lat="43.50989" lon="6.65402">
        <ele>101.7</ele>
        <time>2016-02-14T10:46:27Z</time>
      </trkpt>
      <trkpt lat="43.51034" lon="6.65423">
        <ele>100.4</ele>
        <time>2016-02-14T10:46:49Z</time>
      </trkpt>
      <trkpt lat="43.51078" lon="6.65443">
        <ele>100.7</ele>
        <time>2016-02-14T10:47:01Z</time>
      </trkpt>
      <trkpt lat="43.51152" lon="6.65446">
        <ele>102.7</ele>
        <time>2016-02-14T10:47:16Z</time>
      </trkpt>
      <trkpt lat="43.51152" lon="6.65446">
        <ele>102.7</ele>
        <time>2016-02-14T10:48:01Z</time>
      </trkpt>
      <trkpt lat="43.51179" lon="6.65446">
        <ele>103.9</ele>
        <time>2016-02-14T10:48:04Z</time>
      </trkpt>
      <trkpt lat="43.51213" lon="6.65486">
        <ele>103.3</ele>
        <time>2016-02-14T10:48:16Z</time>
      </trkpt>
      <trkpt lat="43.51238" lon="6.65537">
        <ele>101.6</ele>
        <time>2016-02-14T10:48:27Z</time>
      </trkpt>
      <trkpt lat="43.51241" lon="6.65599">
        <ele>98.4</ele>
        <time>2016-02-14T10:48:35Z</time>
      </trkpt>
      <trkpt lat="43.51233" lon="6.65661">
        <ele>96.2</ele>
        <time>2016-02-14T10:48:44Z</time>
      </trkpt>
      <trkpt lat="43.51221" lon="6.65721">
        <ele>97</ele>
        <time>2016-02-14T10:49:02Z</time>
      </trkpt>
      <trkpt lat="43.51205" lon="6.6578">
        <ele>100.7</ele>
        <time>2016-02-14T10:49:23Z</time>
      </trkpt>
      <trkpt lat="43.51193" lon="6.65791">
        <ele>101.4</ele>
        <time>2016-02-14T10:49:30Z</time>
      </trkpt>
      <trkpt lat="43.51164" lon="6.65846">
        <ele>99</ele>
        <time>2016-02-14T10:49:46Z</time>
      </trkpt>
      <trkpt lat="43.51132" lon="6.65901">
        <ele>96.5</ele>
        <time>2016-02-14T10:49:54Z</time>
      </trkpt>
      <trkpt lat="43.51105" lon="6.65953">
        <ele>94.4</ele>
        <time>2016-02-14T10:50:01Z</time>
      </trkpt>
      <trkpt lat="43.51079" lon="6.66007">
        <ele>92.4</ele>
        <time>2016-02-14T10:50:09Z</time>
      </trkpt>
      <trkpt lat="43.51062" lon="6.66042">
        <ele>91.2</ele>
        <time>2016-02-14T10:50:14Z</time>
      </trkpt>
      <trkpt lat="43.5104" lon="6.66101">
        <ele>90.6</ele>
        <time>2016-02-14T10:50:22Z</time>
      </trkpt>
      <trkpt lat="43.51011" lon="6.66155">
        <ele>89.6</ele>
        <time>2016-02-14T10:50:31Z</time>
      </trkpt>
      <trkpt lat="43.50993" lon="6.66212">
        <ele>88.7</ele>
        <time>2016-02-14T10:50:40Z</time>
      </trkpt>
      <trkpt lat="43.5097" lon="6.66272">
        <ele>87.3</ele>
        <time>2016-02-14T10:50:51Z</time>
      </trkpt>
      <trkpt lat="43.50941" lon="6.66329">
        <ele>85.9</ele>
        <time>2016-02-14T10:51:01Z</time>
      </trkpt>
      <trkpt lat="43.50914" lon="6.6638">
        <ele>83.9</ele>
        <time>2016-02-14T10:51:11Z</time>
      </trkpt>
      <trkpt lat="43.50889" lon="6.66432">
        <ele>82.3</ele>
        <time>2016-02-14T10:51:19Z</time>
      </trkpt>
      <trkpt lat="43.50882" lon="6.66446">
        <ele>82</ele>
        <time>2016-02-14T10:51:21Z</time>
      </trkpt>
      <trkpt lat="43.50839" lon="6.66477">
        <ele>80.3</ele>
        <time>2016-02-14T10:51:29Z</time>
      </trkpt>
      <trkpt lat="43.50822" lon="6.66492">
        <ele>79.6</ele>
        <time>2016-02-14T10:51:32Z</time>
      </trkpt>
      <trkpt lat="43.50794" lon="6.66499">
        <ele>78.6</ele>
        <time>2016-02-14T10:51:36Z</time>
      </trkpt>
      <trkpt lat="43.50773" lon="6.66516">
        <ele>77.6</ele>
        <time>2016-02-14T10:51:40Z</time>
      </trkpt>
      <trkpt lat="43.50732" lon="6.66549">
        <ele>75.9</ele>
        <time>2016-02-14T10:51:48Z</time>
      </trkpt>
      <trkpt lat="43.50699" lon="6.66601">
        <ele>74.1</ele>
        <time>2016-02-14T10:51:56Z</time>
      </trkpt>
      <trkpt lat="43.50681" lon="6.66662">
        <ele>72.8</ele>
        <time>2016-02-14T10:52:04Z</time>
      </trkpt>
      <trkpt lat="43.50659" lon="6.66705">
        <ele>71.5</ele>
        <time>2016-02-14T10:52:12Z</time>
      </trkpt>
      <trkpt lat="43.50642" lon="6.66719">
        <ele>71.5</ele>
        <time>2016-02-14T10:52:17Z</time>
      </trkpt>
      <trkpt lat="43.5062" lon="6.66725">
        <ele>71.4</ele>
        <time>2016-02-14T10:52:22Z</time>
      </trkpt>
      <trkpt lat="43.50585" lon="6.66756">
        <ele>70.7</ele>
        <time>2016-02-14T10:52:30Z</time>
      </trkpt>
      <trkpt lat="43.50567" lon="6.66789">
        <ele>70.2</ele>
        <time>2016-02-14T10:52:36Z</time>
      </trkpt>
      <trkpt lat="43.50564" lon="6.66852">
        <ele>69.3</ele>
        <time>2016-02-14T10:52:46Z</time>
      </trkpt>
      <trkpt lat="43.50578" lon="6.66916">
        <ele>68.4</ele>
        <time>2016-02-14T10:52:57Z</time>
      </trkpt>
      <trkpt lat="43.50577" lon="6.66945">
        <ele>68.1</ele>
        <time>2016-02-14T10:53:02Z</time>
      </trkpt>
      <trkpt lat="43.50539" lon="6.66982">
        <ele>68</ele>
        <time>2016-02-14T10:53:17Z</time>
      </trkpt>
      <trkpt lat="43.50502" lon="6.67017">
        <ele>68.5</ele>
        <time>2016-02-14T10:53:37Z</time>
      </trkpt>
      <trkpt lat="43.50479" lon="6.67051">
        <ele>68.8</ele>
        <time>2016-02-14T10:53:51Z</time>
      </trkpt>
      <trkpt lat="43.50497" lon="6.67112">
        <ele>69.1</ele>
        <time>2016-02-14T10:54:05Z</time>
      </trkpt>
      <trkpt lat="43.50503" lon="6.67133">
        <ele>69.2</ele>
        <time>2016-02-14T10:54:10Z</time>
      </trkpt>
      <trkpt lat="43.50499" lon="6.67196">
        <ele>69.5</ele>
        <time>2016-02-14T10:54:24Z</time>
      </trkpt>
      <trkpt lat="43.50493" lon="6.67258">
        <ele>69.8</ele>
        <time>2016-02-14T10:54:37Z</time>
      </trkpt>
      <trkpt lat="43.50489" lon="6.67323">
        <ele>70.1</ele>
        <time>2016-02-14T10:54:50Z</time>
      </trkpt>
      <trkpt lat="43.50497" lon="6.67385">
        <ele>70.3</ele>
        <time>2016-02-14T10:55:01Z</time>
      </trkpt>
      <trkpt lat="43.50488" lon="6.67446">
        <ele>70.6</ele>
        <time>2016-02-14T10:55:13Z</time>
      </trkpt>
      <trkpt lat="43.50471" lon="6.67505">
        <ele>70.9</ele>
        <time>2016-02-14T10:55:26Z</time>
      </trkpt>
      <trkpt lat="43.50447" lon="6.67612">
        <ele>73.1</ele>
        <time>2016-02-14T10:55:39Z</time>
      </trkpt>
      <trkpt lat="43.50447" lon="6.67612">
        <ele>73.1</ele>
        <time>2016-02-14T11:00:00Z</time>
      </trkpt>
      <trkpt lat="43.5044" lon="6.67662">
        <ele>75.2</ele>
        <time>2016-02-14T11:00:07Z</time>
      </trkpt>
      <trkpt lat="43.50436" lon="6.67725">
        <ele>78.2</ele>
        <time>2016-02-14T11:00:25Z</time>
      </trkpt>
      <trkpt lat="43.50417" lon="6.67782">
        <ele>82</ele>
        <time>2016-02-14T11:00:46Z</time>
      </trkpt>
      <trkpt lat="43.50397" lon="6.67839">
        <ele>83.3</ele>
        <time>2016-02-14T11:01:04Z</time>
      </trkpt>
      <trkpt lat="43.50372" lon="6.67894">
        <ele>83.1</ele>
        <time>2016-02-14T11:01:23Z</time>
      </trkpt>
      <trkpt lat="43.50335" lon="6.67923">
        <ele>82.9</ele>
        <time>2016-02-14T11:01:35Z</time>
      </trkpt>
      <trkpt lat="43.50289" lon="6.67949">
        <ele>82.8</ele>
        <time>2016-02-14T11:01:44Z</time>
      </trkpt>
      <trkpt lat="43.5026" lon="6.6797">
        <ele>82.8</ele>
        <time>2016-02-14T11:01:49Z</time>
      </trkpt>
      <trkpt lat="43.50225" lon="6.68009">
        <ele>82.7</ele>
        <time>2016-02-14T11:01:57Z</time>
      </trkpt>
      <trkpt lat="43.5019" lon="6.68046">
        <ele>82.6</ele>
        <time>2016-02-14T11:02:05Z</time>
      </trkpt>
      <trkpt lat="43.50185" lon="6.68048">
        <ele>82.6</ele>
        <time>2016-02-14T11:02:06Z</time>
      </trkpt>
      <trkpt lat="43.5016" lon="6.6808">
        <ele>82.5</ele>
        <time>2016-02-14T11:02:12Z</time>
      </trkpt>
      <trkpt lat="43.50154" lon="6.68082">
        <ele>82.5</ele>
        <time>2016-02-14T11:02:13Z</time>
      </trkpt>
      <trkpt lat="43.50147" lon="6.68094">
        <ele>82.5</ele>
        <time>2016-02-14T11:02:15Z</time>
      </trkpt>
      <trkpt lat="43.5014" lon="6.68099">
        <ele>82.5</ele>
        <time>2016-02-14T11:02:16Z</time>
      </trkpt>
      <trkpt lat="43.50137" lon="6.68106">
        <ele>82.4</ele>
        <time>2016-02-14T11:02:17Z</time>
      </trkpt>
      <trkpt lat="43.50095" lon="6.68131">
        <ele>82.4</ele>
        <time>2016-02-14T11:02:25Z</time>
      </trkpt>
      <trkpt lat="43.50065" lon="6.68157">
        <ele>82.3</ele>
        <time>2016-02-14T11:02:31Z</time>
      </trkpt>
      <trkpt lat="43.50058" lon="6.68171">
        <ele>82.3</ele>
        <time>2016-02-14T11:02:33Z</time>
      </trkpt>
      <trkpt lat="43.50052" lon="6.68178">
        <ele>82.2</ele>
        <time>2016-02-14T11:02:34Z</time>
      </trkpt>
      <trkpt lat="43.50045" lon="6.68195">
        <ele>82.2</ele>
        <time>2016-02-14T11:02:36Z</time>
      </trkpt>
      <trkpt lat="43.50027" lon="6.68223">
        <ele>82.2</ele>
        <time>2016-02-14T11:02:40Z</time>
      </trkpt>
      <trkpt lat="43.50025" lon="6.6823">
        <ele>82.2</ele>
        <time>2016-02-14T11:02:41Z</time>
      </trkpt>
      <trkpt lat="43.50025" lon="6.68242">
        <ele>82.2</ele>
        <time>2016-02-14T11:02:42Z</time>
      </trkpt>
      <trkpt lat="43.49998" lon="6.68302">
        <ele>82.1</ele>
        <time>2016-02-14T11:02:49Z</time>
      </trkpt>
      <trkpt lat="43.49976" lon="6.68353">
        <ele>82</ele>
        <time>2016-02-14T11:02:55Z</time>
      </trkpt>
      <trkpt lat="43.49972" lon="6.68359">
        <ele>82</ele>
        <time>2016-02-14T11:02:56Z</time>
      </trkpt>
      <trkpt lat="43.49947" lon="6.68421">
        <ele>81.4</ele>
        <time>2016-02-14T11:03:04Z</time>
      </trkpt>
      <trkpt lat="43.49935" lon="6.68469">
        <ele>80.7</ele>
        <time>2016-02-14T11:03:09Z</time>
      </trkpt>
      <trkpt lat="43.49918" lon="6.68532">
        <ele>79.3</ele>
        <time>2016-02-14T11:03:16Z</time>
      </trkpt>
      <trkpt lat="43.49907" lon="6.68601">
        <ele>79</ele>
        <time>2016-02-14T11:03:23Z</time>
      </trkpt>
      <trkpt lat="43.49897" lon="6.68636">
        <ele>78.7</ele>
        <time>2016-02-14T11:03:27Z</time>
      </trkpt>
      <trkpt lat="43.49899" lon="6.687">
        <ele>78.3</ele>
        <time>2016-02-14T11:03:33Z</time>
      </trkpt>
      <trkpt lat="43.49896" lon="6.68749">
        <ele>77.9</ele>
        <time>2016-02-14T11:03:38Z</time>
      </trkpt>
      <trkpt lat="43.49881" lon="6.68789">
        <ele>77.5</ele>
        <time>2016-02-14T11:03:43Z</time>
      </trkpt>
      <trkpt lat="43.49854" lon="6.68839">
        <ele>77</ele>
        <time>2016-02-14T11:03:50Z</time>
      </trkpt>
      <trkpt lat="43.49837" lon="6.68905">
        <ele>76.4</ele>
        <time>2016-02-14T11:03:58Z</time>
      </trkpt>
      <trkpt lat="43.49821" lon="6.68966">
        <ele>75.9</ele>
        <time>2016-02-14T11:04:05Z</time>
      </trkpt>
      <trkpt lat="43.49816" lon="6.68983">
        <ele>75.7</ele>
        <time>2016-02-14T11:04:07Z</time>
      </trkpt>
      <trkpt lat="43.49813" lon="6.69004">
        <ele>75.3</ele>
        <time>2016-02-14T11:04:09Z</time>
      </trkpt>
      <trkpt lat="43.49823" lon="6.69069">
        <ele>74.1</ele>
        <time>2016-02-14T11:04:15Z</time>
      </trkpt>
      <trkpt lat="43.49839" lon="6.69129">
        <ele>72.7</ele>
        <time>2016-02-14T11:04:22Z</time>
      </trkpt>
      <trkpt lat="43.49841" lon="6.69136">
        <ele>72.5</ele>
        <time>2016-02-14T11:04:23Z</time>
      </trkpt>
      <trkpt lat="43.49838" lon="6.69156">
        <ele>72.3</ele>
        <time>2016-02-14T11:04:25Z</time>
      </trkpt>
      <trkpt lat="43.49825" lon="6.69191">
        <ele>71.9</ele>
        <time>2016-02-14T11:04:29Z</time>
      </trkpt>
      <trkpt lat="43.4982" lon="6.69213">
        <ele>71.6</ele>
        <time>2016-02-14T11:04:31Z</time>
      </trkpt>
      <trkpt lat="43.49796" lon="6.69271">
        <ele>70.5</ele>
        <time>2016-02-14T11:04:38Z</time>
      </trkpt>
      <trkpt lat="43.49784" lon="6.69305">
        <ele>69.9</ele>
        <time>2016-02-14T11:04:42Z</time>
      </trkpt>
      <trkpt lat="43.49772" lon="6.69323">
        <ele>69.4</ele>
        <time>2016-02-14T11:04:45Z</time>
      </trkpt>
      <trkpt lat="43.49764" lon="6.69349">
        <ele>69.3</ele>
        <time>2016-02-14T11:04:48Z</time>
      </trkpt>
      <trkpt lat="43.49763" lon="6.69362">
        <ele>69.4</ele>
        <time>2016-02-14T11:04:49Z</time>
      </trkpt>
      <trkpt lat="43.49739" lon="6.69418">
        <ele>69</ele>
        <time>2016-02-14T11:04:57Z</time>
      </trkpt>
      <trkpt lat="43.49726" lon="6.6944">
        <ele>68.6</ele>
        <time>2016-02-14T11:05:01Z</time>
      </trkpt>
      <trkpt lat="43.49708" lon="6.69489">
        <ele>68</ele>
        <time>2016-02-14T11:05:08Z</time>
      </trkpt>
      <trkpt lat="43.49681" lon="6.69547">
        <ele>67.2</ele>
        <time>2016-02-14T11:05:17Z</time>
      </trkpt>
      <trkpt lat="43.49673" lon="6.69561">
        <ele>67</ele>
        <time>2016-02-14T11:05:19Z</time>
      </trkpt>
      <trkpt lat="43.49662" lon="6.69571">
        <ele>66.8</ele>
        <time>2016-02-14T11:05:21Z</time>
      </trkpt>
      <trkpt lat="43.49635" lon="6.6963">
        <ele>65.1</ele>
        <time>2016-02-14T11:05:29Z</time>
      </trkpt>
      <trkpt lat="43.49622" lon="6.69651">
        <ele>64.3</ele>
        <time>2016-02-14T11:05:32Z</time>
      </trkpt>
      <trkpt lat="43.49621" lon="6.6966">
        <ele>64.1</ele>
        <time>2016-02-14T11:05:33Z</time>
      </trkpt>
      <trkpt lat="43.49595" lon="6.69712">
        <ele>62.7</ele>
        <time>2016-02-14T11:05:40Z</time>
      </trkpt>
      <trkpt lat="43.49565" lon="6.69763">
        <ele>61.9</ele>
        <time>2016-02-14T11:05:47Z</time>
      </trkpt>
      <trkpt lat="43.49551" lon="6.69779">
        <ele>61.6</ele>
        <time>2016-02-14T11:05:50Z</time>
      </trkpt>
      <trkpt lat="43.49536" lon="6.69811">
        <ele>61.1</ele>
        <time>2016-02-14T11:05:54Z</time>
      </trkpt>
      <trkpt lat="43.49527" lon="6.6984">
        <ele>60.8</ele>
        <time>2016-02-14T11:05:57Z</time>
      </trkpt>
      <trkpt lat="43.49512" lon="6.6986">
        <ele>60.3</ele>
        <time>2016-02-14T11:06:00Z</time>
      </trkpt>
      <trkpt lat="43.49491" lon="6.69918">
        <ele>59.2</ele>
        <time>2016-02-14T11:06:07Z</time>
      </trkpt>
      <trkpt lat="43.49472" lon="6.6998">
        <ele>58.8</ele>
        <time>2016-02-14T11:06:14Z</time>
      </trkpt>
      <trkpt lat="43.49445" lon="6.70035">
        <ele>57.2</ele>
        <time>2016-02-14T11:06:21Z</time>
      </trkpt>
      <trkpt lat="43.49424" lon="6.70079">
        <ele>54.6</ele>
        <time>2016-02-14T11:06:26Z</time>
      </trkpt>
      <trkpt lat="43.49413" lon="6.70089">
        <ele>54.4</ele>
        <time>2016-02-14T11:06:28Z</time>
      </trkpt>
      <trkpt lat="43.49406" lon="6.70089">
        <ele>54.3</ele>
        <time>2016-02-14T11:06:29Z</time>
      </trkpt>
      <trkpt lat="43.49392" lon="6.70082">
        <ele>54.6</ele>
        <time>2016-02-14T11:06:32Z</time>
      </trkpt>
      <trkpt lat="43.49377" lon="6.70088">
        <ele>55.8</ele>
        <time>2016-02-14T11:06:35Z</time>
      </trkpt>
      <trkpt lat="43.49354" lon="6.70106">
        <ele>58.8</ele>
        <time>2016-02-14T11:06:42Z</time>
      </trkpt>
      <trkpt lat="43.49321" lon="6.70118">
        <ele>58.5</ele>
        <time>2016-02-14T11:06:51Z</time>
      </trkpt>
      <trkpt lat="43.49308" lon="6.70131">
        <ele>58.3</ele>
        <time>2016-02-14T11:06:54Z</time>
      </trkpt>
      <trkpt lat="43.49305" lon="6.7014">
        <ele>58.1</ele>
        <time>2016-02-14T11:06:55Z</time>
      </trkpt>
      <trkpt lat="43.49269" lon="6.70166">
        <ele>57.1</ele>
        <time>2016-02-14T11:07:03Z</time>
      </trkpt>
      <trkpt lat="43.49271" lon="6.70164">
        <ele>57.5</ele>
        <time>2016-02-14T11:07:09Z</time>
      </trkpt>
      <trkpt lat="43.49271" lon="6.70164">
        <ele>57.5</ele>
        <time>2016-02-14T11:07:35Z</time>
      </trkpt>
      <trkpt lat="43.49288" lon="6.70156">
        <ele>57.9</ele>
        <time>2016-02-14T11:07:49Z</time>
      </trkpt>
      <trkpt lat="43.49288" lon="6.70156">
        <ele>57.9</ele>
        <time>2016-02-14T11:08:19Z</time>
      </trkpt>
      <trkpt lat="43.49289" lon="6.70156">
        <ele>57.7</ele>
        <time>2016-02-14T11:08:23Z</time>
      </trkpt>
      <trkpt lat="43.49247" lon="6.70177">
        <ele>56.1</ele>
        <time>2016-02-14T11:08:30Z</time>
      </trkpt>
      <trkpt lat="43.49204" lon="6.70198">
        <ele>56.5</ele>
        <time>2016-02-14T11:08:37Z</time>
      </trkpt>
      <trkpt lat="43.49159" lon="6.702">
        <ele>57.4</ele>
        <time>2016-02-14T11:08:58Z</time>
      </trkpt>
      <trkpt lat="43.49119" lon="6.7022">
        <ele>57.7</ele>
        <time>2016-02-14T11:09:08Z</time>
      </trkpt>
      <trkpt lat="43.49084" lon="6.70216">
        <ele>58</ele>
        <time>2016-02-14T11:09:18Z</time>
      </trkpt>
      <trkpt lat="43.49036" lon="6.70234">
        <ele>57.5</ele>
        <time>2016-02-14T11:09:30Z</time>
      </trkpt>
      <trkpt lat="43.48988" lon="6.70246">
        <ele>56.7</ele>
        <time>2016-02-14T11:09:42Z</time>
      </trkpt>
      <trkpt lat="43.48949" lon="6.70258">
        <ele>54.9</ele>
        <time>2016-02-14T11:09:51Z</time>
      </trkpt>
      <trkpt lat="43.48904" lon="6.70258">
        <ele>53.6</ele>
        <time>2016-02-14T11:09:58Z</time>
      </trkpt>
      <trkpt lat="43.48898" lon="6.70262">
        <ele>53.5</ele>
        <time>2016-02-14T11:09:59Z</time>
      </trkpt>
      <trkpt lat="43.48849" lon="6.70256">
        <ele>51.8</ele>
        <time>2016-02-14T11:10:06Z</time>
      </trkpt>
      <trkpt lat="43.488" lon="6.70254">
        <ele>50.1</ele>
        <time>2016-02-14T11:10:13Z</time>
      </trkpt>
      <trkpt lat="43.48754" lon="6.70248">
        <ele>49</ele>
        <time>2016-02-14T11:10:19Z</time>
      </trkpt>
      <trkpt lat="43.48721" lon="6.70239">
        <ele>48.7</ele>
        <time>2016-02-14T11:10:24Z</time>
      </trkpt>
      <trkpt lat="43.48673" lon="6.70215">
        <ele>48.8</ele>
        <time>2016-02-14T11:10:32Z</time>
      </trkpt>
      <trkpt lat="43.48626" lon="6.70207">
        <ele>49.5</ele>
        <time>2016-02-14T11:10:42Z</time>
      </trkpt>
      <trkpt lat="43.4858" lon="6.70205">
        <ele>50.1</ele>
        <time>2016-02-14T11:10:51Z</time>
      </trkpt>
      <trkpt lat="43.48552" lon="6.70198">
        <ele>50.5</ele>
        <time>2016-02-14T11:10:57Z</time>
      </trkpt>
      <trkpt lat="43.48513" lon="6.70166">
        <ele>51.5</ele>
        <time>2016-02-14T11:11:08Z</time>
      </trkpt>
      <trkpt lat="43.48467" lon="6.7015">
        <ele>52.1</ele>
        <time>2016-02-14T11:11:17Z</time>
      </trkpt>
      <trkpt lat="43.48422" lon="6.70141">
        <ele>52</ele>
        <time>2016-02-14T11:11:25Z</time>
      </trkpt>
      <trkpt lat="43.48376" lon="6.70114">
        <ele>52</ele>
        <time>2016-02-14T11:11:33Z</time>
      </trkpt>
      <trkpt lat="43.4835" lon="6.70103">
        <ele>52</ele>
        <time>2016-02-14T11:11:37Z</time>
      </trkpt>
      <trkpt lat="43.48304" lon="6.70106">
        <ele>51.9</ele>
        <time>2016-02-14T11:11:44Z</time>
      </trkpt>
      <trkpt lat="43.48255" lon="6.70115">
        <ele>51.9</ele>
        <time>2016-02-14T11:11:51Z</time>
      </trkpt>
      <trkpt lat="43.48209" lon="6.70112">
        <ele>51.9</ele>
        <time>2016-02-14T11:11:57Z</time>
      </trkpt>
      <trkpt lat="43.48157" lon="6.70115">
        <ele>51.8</ele>
        <time>2016-02-14T11:12:04Z</time>
      </trkpt>
      <trkpt lat="43.48109" lon="6.70122">
        <ele>51.7</ele>
        <time>2016-02-14T11:12:11Z</time>
      </trkpt>
      <trkpt lat="43.48063" lon="6.70121">
        <ele>51.8</ele>
        <time>2016-02-14T11:12:19Z</time>
      </trkpt>
      <trkpt lat="43.48019" lon="6.70108">
        <ele>52.1</ele>
        <time>2016-02-14T11:12:28Z</time>
      </trkpt>
      <trkpt lat="43.47975" lon="6.70091">
        <ele>52.4</ele>
        <time>2016-02-14T11:12:38Z</time>
      </trkpt>
      <trkpt lat="43.4793" lon="6.70085">
        <ele>52.8</ele>
        <time>2016-02-14T11:12:49Z</time>
      </trkpt>
      <trkpt lat="43.47918" lon="6.70085">
        <ele>52.9</ele>
        <time>2016-02-14T11:12:52Z</time>
      </trkpt>
      <trkpt lat="43.47888" lon="6.70078">
        <ele>53.1</ele>
        <time>2016-02-14T11:12:58Z</time>
      </trkpt>
      <trkpt lat="43.47844" lon="6.7009">
        <ele>53.6</ele>
        <time>2016-02-14T11:13:07Z</time>
      </trkpt>
      <trkpt lat="43.47836" lon="6.70096">
        <ele>53.8</ele>
        <time>2016-02-14T11:13:09Z</time>
      </trkpt>
      <trkpt lat="43.47789" lon="6.70096">
        <ele>52.2</ele>
        <time>2016-02-14T11:13:21Z</time>
      </trkpt>
      <trkpt lat="43.47743" lon="6.70093">
        <ele>50.7</ele>
        <time>2016-02-14T11:13:31Z</time>
      </trkpt>
      <trkpt lat="43.47694" lon="6.70081">
        <ele>50.2</ele>
        <time>2016-02-14T11:13:41Z</time>
      </trkpt>
      <trkpt lat="43.47613" lon="6.70064">
        <ele>48.4</ele>
        <time>2016-02-14T11:13:55Z</time>
      </trkpt>
      <trkpt lat="43.47613" lon="6.70064">
        <ele>48.4</ele>
        <time>2016-02-14T11:14:37Z</time>
      </trkpt>
      <trkpt lat="43.4758" lon="6.70057">
        <ele>47</ele>
        <time>2016-02-14T11:14:41Z</time>
      </trkpt>
      <trkpt lat="43.47552" lon="6.70081">
        <ele>45.4</ele>
        <time>2016-02-14T11:14:47Z</time>
      </trkpt>
      <trkpt lat="43.47533" lon="6.70082">
        <ele>45.1</ele>
        <time>2016-02-14T11:14:50Z</time>
      </trkpt>
      <trkpt lat="43.47489" lon="6.70064">
        <ele>44.1</ele>
        <time>2016-02-14T11:14:57Z</time>
      </trkpt>
      <trkpt lat="43.47473" lon="6.70048">
        <ele>43.1</ele>
        <time>2016-02-14T11:15:00Z</time>
      </trkpt>
      <trkpt lat="43.47465" lon="6.6999">
        <ele>40.7</ele>
        <time>2016-02-14T11:15:07Z</time>
      </trkpt>
      <trkpt lat="43.47478" lon="6.69929">
        <ele>38.7</ele>
        <time>2016-02-14T11:15:14Z</time>
      </trkpt>
      <trkpt lat="43.47481" lon="6.69873">
        <ele>37</ele>
        <time>2016-02-14T11:15:20Z</time>
      </trkpt>
      <trkpt lat="43.47494" lon="6.69852">
        <ele>36.3</ele>
        <time>2016-02-14T11:15:23Z</time>
      </trkpt>
      <trkpt lat="43.47534" lon="6.69822">
        <ele>33.6</ele>
        <time>2016-02-14T11:15:32Z</time>
      </trkpt>
      <trkpt lat="43.47541" lon="6.69812">
        <ele>32.5</ele>
        <time>2016-02-14T11:15:34Z</time>
      </trkpt>
      <trkpt lat="43.47542" lon="6.69797">
        <ele>31.5</ele>
        <time>2016-02-14T11:15:36Z</time>
      </trkpt>
      <trkpt lat="43.47538" lon="6.69782">
        <ele>30.2</ele>
        <time>2016-02-14T11:15:38Z</time>
      </trkpt>
      <trkpt lat="43.47529" lon="6.69773">
        <ele>28.9</ele>
        <time>2016-02-14T11:15:40Z</time>
      </trkpt>
      <trkpt lat="43.47501" lon="6.69772">
        <ele>27.2</ele>
        <time>2016-02-14T11:15:44Z</time>
      </trkpt>
      <trkpt lat="43.47482" lon="6.69759">
        <ele>26.6</ele>
        <time>2016-02-14T11:15:47Z</time>
      </trkpt>
      <trkpt lat="43.47446" lon="6.69717">
        <ele>24.7</ele>
        <time>2016-02-14T11:15:58Z</time>
      </trkpt>
      <trkpt lat="43.47402" lon="6.69696">
        <ele>26.2</ele>
        <time>2016-02-14T11:16:11Z</time>
      </trkpt>
      <trkpt lat="43.4736" lon="6.69674">
        <ele>29.1</ele>
        <time>2016-02-14T11:16:27Z</time>
      </trkpt>
      <trkpt lat="43.47313" lon="6.69666">
        <ele>31.2</ele>
        <time>2016-02-14T11:16:48Z</time>
      </trkpt>
      <trkpt lat="43.47268" lon="6.69676">
        <ele>31.8</ele>
        <time>2016-02-14T11:16:59Z</time>
      </trkpt>
      <trkpt lat="43.47229" lon="6.6966">
        <ele>32.4</ele>
        <time>2016-02-14T11:17:10Z</time>
      </trkpt>
      <trkpt lat="43.47212" lon="6.69619">
        <ele>32.9</ele>
        <time>2016-02-14T11:17:19Z</time>
      </trkpt>
      <trkpt lat="43.47215" lon="6.69611">
        <ele>33</ele>
        <time>2016-02-14T11:17:20Z</time>
      </trkpt>
      <trkpt lat="43.47214" lon="6.69597">
        <ele>33.1</ele>
        <time>2016-02-14T11:17:22Z</time>
      </trkpt>
      <trkpt lat="43.47205" lon="6.69576">
        <ele>33.3</ele>
        <time>2016-02-14T11:17:26Z</time>
      </trkpt>
      <trkpt lat="43.47201" lon="6.69563">
        <ele>33.5</ele>
        <time>2016-02-14T11:17:29Z</time>
      </trkpt>
      <trkpt lat="43.47202" lon="6.69555">
        <ele>33.6</ele>
        <time>2016-02-14T11:17:30Z</time>
      </trkpt>
      <trkpt lat="43.47197" lon="6.69544">
        <ele>33.7</ele>
        <time>2016-02-14T11:17:32Z</time>
      </trkpt>
      <trkpt lat="43.47193" lon="6.69518">
        <ele>33.9</ele>
        <time>2016-02-14T11:17:36Z</time>
      </trkpt>
      <trkpt lat="43.47188" lon="6.69522">
        <ele>33.9</ele>
        <time>2016-02-14T11:17:37Z</time>
      </trkpt>
      <trkpt lat="43.47189" lon="6.69512">
        <ele>34</ele>
        <time>2016-02-14T11:17:38Z</time>
      </trkpt>
      <trkpt lat="43.47186" lon="6.69507">
        <ele>34.1</ele>
        <time>2016-02-14T11:17:39Z</time>
      </trkpt>
      <trkpt lat="43.47189" lon="6.69488">
        <ele>34.2</ele>
        <time>2016-02-14T11:17:41Z</time>
      </trkpt>
      <trkpt lat="43.47166" lon="6.69434">
        <ele>35</ele>
        <time>2016-02-14T11:17:56Z</time>
      </trkpt>
      <trkpt lat="43.47123" lon="6.69411">
        <ele>35.7</ele>
        <time>2016-02-14T11:18:09Z</time>
      </trkpt>
      <trkpt lat="43.47091" lon="6.69363">
        <ele>36.3</ele>
        <time>2016-02-14T11:18:22Z</time>
      </trkpt>
      <trkpt lat="43.47048" lon="6.69336">
        <ele>37</ele>
        <time>2016-02-14T11:18:36Z</time>
      </trkpt>
      <trkpt lat="43.4701" lon="6.69329">
        <ele>40.2</ele>
        <time>2016-02-14T11:18:51Z</time>
      </trkpt>
      <trkpt lat="43.47015" lon="6.69343">
        <ele>40.4</ele>
        <time>2016-02-14T11:18:55Z</time>
      </trkpt>
      <trkpt lat="43.47026" lon="6.69404">
        <ele>39.5</ele>
        <time>2016-02-14T11:19:14Z</time>
      </trkpt>
      <trkpt lat="43.47033" lon="6.69433">
        <ele>39.3</ele>
        <time>2016-02-14T11:19:20Z</time>
      </trkpt>
      <trkpt lat="43.47055" lon="6.69467">
        <ele>38.9</ele>
        <time>2016-02-14T11:19:27Z</time>
      </trkpt>
      <trkpt lat="43.47045" lon="6.69533">
        <ele>38.4</ele>
        <time>2016-02-14T11:19:38Z</time>
      </trkpt>
      <trkpt lat="43.47022" lon="6.69583">
        <ele>38</ele>
        <time>2016-02-14T11:19:46Z</time>
      </trkpt>
      <trkpt lat="43.46993" lon="6.69633">
        <ele>37.6</ele>
        <time>2016-02-14T11:19:55Z</time>
      </trkpt>
      <trkpt lat="43.46982" lon="6.69646">
        <ele>37.4</ele>
        <time>2016-02-14T11:19:58Z</time>
      </trkpt>
      <trkpt lat="43.46967" lon="6.69656">
        <ele>37.3</ele>
        <time>2016-02-14T11:20:01Z</time>
      </trkpt>
      <trkpt lat="43.46945" lon="6.69658">
        <ele>37.1</ele>
        <time>2016-02-14T11:20:06Z</time>
      </trkpt>
      <trkpt lat="43.46939" lon="6.69678">
        <ele>36.7</ele>
        <time>2016-02-14T11:20:10Z</time>
      </trkpt>
      <trkpt lat="43.46936" lon="6.69681">
        <ele>36.7</ele>
        <time>2016-02-14T11:20:11Z</time>
      </trkpt>
      <trkpt lat="43.46929" lon="6.69681">
        <ele>36.5</ele>
        <time>2016-02-14T11:20:13Z</time>
      </trkpt>
      <trkpt lat="43.46916" lon="6.69708">
        <ele>35.8</ele>
        <time>2016-02-14T11:20:20Z</time>
      </trkpt>
      <trkpt lat="43.46906" lon="6.69708">
        <ele>35.6</ele>
        <time>2016-02-14T11:20:23Z</time>
      </trkpt>
      <trkpt lat="43.46893" lon="6.69695">
        <ele>35.3</ele>
        <time>2016-02-14T11:20:26Z</time>
      </trkpt>
      <trkpt lat="43.4688" lon="6.69695">
        <ele>35</ele>
        <time>2016-02-14T11:20:29Z</time>
      </trkpt>
      <trkpt lat="43.46868" lon="6.69722">
        <ele>35.4</ele>
        <time>2016-02-14T11:20:35Z</time>
      </trkpt>
      <trkpt lat="43.4686" lon="6.69725">
        <ele>34.7</ele>
        <time>2016-02-14T11:20:37Z</time>
      </trkpt>
      <trkpt lat="43.46836" lon="6.69712">
        <ele>32.8</ele>
        <time>2016-02-14T11:20:42Z</time>
      </trkpt>
      <trkpt lat="43.46811" lon="6.69722">
        <ele>31.4</ele>
        <time>2016-02-14T11:20:47Z</time>
      </trkpt>
      <trkpt lat="43.46805" lon="6.6972">
        <ele>31.4</ele>
        <time>2016-02-14T11:20:57Z</time>
      </trkpt>
    </trkseg>
  </trk>
</gpx>